Wetterdaten: Dienstag, 26.05.2015
Datum Zeit Temp. Aussen +5cm Feuchte Auss BlattFeu 1 Luftdruck Regen Sonnenschein Regendauer Solar Windben
26.05.2015 00:00 11,6 C 10,0 C 75 % 0 lf 1016,6 hPa 0,0 l/m 0 min 0 min 0 W/m 18,8 km/h (3 Bft)
26.05.2015 00:02 11,6 C 10,0 C 75 % 0 lf 1016,6 hPa 0,0 l/m 0 min 0 min 0 W/m 12,6 km/h (3 Bft)
26.05.2015 00:05 11,6 C 10,0 C 75 % 0 lf 1016,7 hPa 0,0 l/m 0 min 0 min 0 W/m 12,6 km/h (3 Bft)
26.05.2015 00:06 11,6 C 10,0 C 75 % 0 lf 1016,7 hPa 0,0 l/m 0 min 0 min 0 W/m 8,4 km/h (2 Bft)
26.05.2015 00:08 11,6 C 10,6 C 75 % 0 lf 1016,8 hPa 0,0 l/m 0 min 0 min 0 W/m 10,5 km/h (2 Bft)
26.05.2015 00:10 11,5 C 10,6 C 75 % 0 lf 1016,8 hPa 0,0 l/m 0 min 0 min 0 W/m 12,6 km/h (3 Bft)
26.05.2015 00:12 11,5 C 10,0 C 75 % 0 lf 1016,8 hPa 0,0 l/m 0 min 0 min 0 W/m 18,8 km/h (3 Bft)
26.05.2015 00:14 11,4 C 10,0 C 75 % 0 lf 1016,8 hPa 0,0 l/m 0 min 0 min 0 W/m 18,8 km/h (3 Bft)
26.05.2015 00:16 11,4 C 10,0 C 75 % 0 lf 1016,8 hPa 0,0 l/m 0 min 0 min 0 W/m 16,7 km/h (3 Bft)
26.05.2015 00:18 11,4 C 10,0 C 75 % 0 lf 1016,8 hPa 0,0 l/m 0 min 0 min 0 W/m 8,4 km/h (2 Bft)
26.05.2015 00:20 11,4 C 10,0 C 75 % 0 lf 1016,8 hPa 0,0 l/m 0 min 0 min 0 W/m 14,6 km/h (3 Bft)
26.05.2015 00:22 11,4 C 10,0 C 75 % 0 lf 1016,8 hPa 0,0 l/m 0 min 0 min 0 W/m 20,9 km/h (4 Bft)
26.05.2015 00:24 11,4 C 10,0 C 75 % 0 lf 1016,8 hPa 0,0 l/m 0 min 0 min 0 W/m 16,7 km/h (3 Bft)
26.05.2015 00:26 11,4 C 10,0 C 75 % 0 lf 1016,8 hPa 0,0 l/m 0 min 0 min 0 W/m 14,6 km/h (3 Bft)
26.05.2015 00:28 11,3 C 10,0 C 75 % 0 lf 1016,8 hPa 0,0 l/m 0 min 0 min 0 W/m 10,5 km/h (2 Bft)
26.05.2015 00:30 11,3 C 10,0 C 75 % 0 lf 1016,8 hPa 0,0 l/m 0 min 0 min 0 W/m 10,5 km/h (2 Bft)
26.05.2015 00:32 11,3 C 10,0 C 76 % 0 lf 1016,7 hPa 0,0 l/m 0 min 0 min 0 W/m 12,6 km/h (3 Bft)
26.05.2015 00:34 11,3 C 10,0 C 76 % 0 lf 1016,7 hPa 0,0 l/m 0 min 0 min 0 W/m 8,4 km/h (2 Bft)
26.05.2015 00:36 11,3 C 10,0 C 76 % 0 lf 1016,7 hPa 0,0 l/m 0 min 0 min 0 W/m 12,6 km/h (3 Bft)
26.05.2015 00:38 11,3 C 10,0 C 76 % 0 lf 1016,7 hPa 0,0 l/m 0 min 0 min 0 W/m 12,6 km/h (3 Bft)
26.05.2015 00:40 11,3 C 10,0 C 76 % 0 lf 1016,7 hPa 0,0 l/m 0 min 0 min 0 W/m 8,4 km/h (2 Bft)
26.05.2015 00:42 11,3 C 10,0 C 76 % 0 lf 1016,6 hPa 0,0 l/m 0 min 0 min 0 W/m 10,5 km/h (2 Bft)
26.05.2015 00:44 11,2 C 10,0 C 76 % 0 lf 1016,7 hPa 0,0 l/m 0 min 0 min 0 W/m 6,3 km/h (2 Bft)
26.05.2015 00:46 11,2 C 10,0 C 76 % 0 lf 1016,7 hPa 0,0 l/m 0 min 0 min 0 W/m 14,6 km/h (3 Bft)
26.05.2015 00:48 11,2 C 10,0 C 76 % 0 lf 1016,7 hPa 0,0 l/m 0 min 0 min 0 W/m 12,6 km/h (3 Bft)
26.05.2015 00:50 11,2 C 10,0 C 76 % 0 lf 1016,8 hPa 0,0 l/m 0 min 0 min 0 W/m 14,6 km/h (3 Bft)
26.05.2015 00:52 11,2 C 10,0 C 76 % 0 lf 1016,7 hPa 0,0 l/m 0 min 0 min 0 W/m 10,5 km/h (2 Bft)
26.05.2015 00:54 11,2 C 10,0 C 76 % 0 lf 1016,8 hPa 0,0 l/m 0 min 0 min 0 W/m 12,6 km/h (3 Bft)
26.05.2015 00:56 11,2 C 10,0 C 77 % 0 lf 1016,8 hPa 0,0 l/m 0 min 0 min 0 W/m 8,4 km/h (2 Bft)
26.05.2015 00:58 11,1 C 10,0 C 77 % 0 lf 1016,8 hPa 0,0 l/m 0 min 0 min 0 W/m 12,6 km/h (3 Bft)
26.05.2015 01:00 11,1 C 10,0 C 77 % 0 lf 1016,8 hPa 0,0 l/m 0 min 0 min 0 W/m 12,6 km/h (3 Bft)
26.05.2015 01:02 11,1 C 10,0 C 77 % 0 lf 1016,8 hPa 0,0 l/m 0 min 0 min 0 W/m 14,6 km/h (3 Bft)
26.05.2015 01:04 11,1 C 10,0 C 77 % 0 lf 1016,8 hPa 0,0 l/m 0 min 0 min 0 W/m 8,4 km/h (2 Bft)
26.05.2015 01:06 11,1 C 10,0 C 77 % 0 lf 1016,8 hPa 0,0 l/m 0 min 0 min 0 W/m 16,7 km/h (3 Bft)
26.05.2015 01:08 11,1 C 10,0 C 77 % 0 lf 1016,8 hPa 0,0 l/m 0 min 0 min 0 W/m 12,6 km/h (3 Bft)
26.05.2015 01:10 11,1 C 10,0 C 77 % 0 lf 1016,8 hPa 0,0 l/m 0 min 0 min 0 W/m 16,7 km/h (3 Bft)
26.05.2015 01:12 11,0 C 10,0 C 77 % 0 lf 1016,7 hPa 0,0 l/m 0 min 0 min 0 W/m 14,6 km/h (3 Bft)
26.05.2015 01:14 11,0 C 10,0 C 77 % 0 lf 1016,8 hPa 0,0 l/m 0 min 0 min 0 W/m 8,4 km/h (2 Bft)
26.05.2015 01:16 11,0 C 10,0 C 77 % 0 lf 1016,8 hPa 0,0 l/m 0 min 0 min 0 W/m 12,6 km/h (3 Bft)
26.05.2015 01:18 11,0 C 10,0 C 77 % 0 lf 1016,7 hPa 0,0 l/m 0 min 0 min 0 W/m 10,5 km/h (2 Bft)
26.05.2015 01:20 11,0 C 10,0 C 77 % 0 lf 1016,8 hPa 0,0 l/m 0 min 0 min 0 W/m 10,5 km/h (2 Bft)
26.05.2015 01:22 10,9 C 10,0 C 77 % 0 lf 1016,7 hPa 0,0 l/m 0 min 0 min 0 W/m 8,4 km/h (2 Bft)
26.05.2015 01:24 10,9 C 10,0 C 77 % 0 lf 1016,8 hPa 0,0 l/m 0 min 0 min 0 W/m 8,4 km/h (2 Bft)
26.05.2015 01:26 10,9 C 10,0 C 77 % 0 lf 1016,8 hPa 0,0 l/m 0 min 0 min 0 W/m 8,4 km/h (2 Bft)
26.05.2015 01:28 10,9 C 10,0 C 77 % 0 lf 1016,8 hPa 0,0 l/m 0 min 0 min 0 W/m 12,6 km/h (3 Bft)
26.05.2015 01:30 10,9 C 10,0 C 77 % 0 lf 1016,9 hPa 0,0 l/m 0 min 0 min 0 W/m 10,5 km/h (2 Bft)
26.05.2015 01:32 10,9 C 10,0 C 78 % 0 lf 1016,8 hPa 0,0 l/m 0 min 0 min 0 W/m 10,5 km/h (2 Bft)
26.05.2015 01:34 10,9 C 10,0 C 78 % 0 lf 1016,8 hPa 0,0 l/m 0 min 0 min 0 W/m 8,4 km/h (2 Bft)
26.05.2015 01:36 10,9 C 10,0 C 78 % 0 lf 1016,9 hPa 0,0 l/m 0 min 0 min 0 W/m 10,5 km/h (2 Bft)
26.05.2015 01:38 10,9 C 10,0 C 78 % 0 lf 1016,9 hPa 0,0 l/m 0 min 0 min 0 W/m 12,6 km/h (3 Bft)
26.05.2015 01:40 10,9 C 10,0 C 78 % 0 lf 1016,9 hPa 0,0 l/m 0 min 0 min 0 W/m 12,6 km/h (3 Bft)
26.05.2015 01:42 10,9 C 10,0 C 78 % 0 lf 1016,9 hPa 0,0 l/m 0 min 0 min 0 W/m 10,5 km/h (2 Bft)
26.05.2015 01:44 10,9 C 10,0 C 78 % 0 lf 1016,9 hPa 0,0 l/m 0 min 0 min 0 W/m 8,4 km/h (2 Bft)
26.05.2015 01:46 10,8 C 10,0 C 78 % 0 lf 1016,9 hPa 0,0 l/m 0 min 0 min 0 W/m 10,5 km/h (2 Bft)
26.05.2015 01:48 10,8 C 10,0 C 78 % 0 lf 1016,9 hPa 0,0 l/m 0 min 0 min 0 W/m 10,5 km/h (2 Bft)
26.05.2015 01:50 10,8 C 10,0 C 78 % 0 lf 1016,9 hPa 0,0 l/m 0 min 0 min 0 W/m 12,6 km/h (3 Bft)
26.05.2015 01:52 10,8 C 10,0 C 78 % 0 lf 1016,8 hPa 0,0 l/m 0 min 0 min 0 W/m 10,5 km/h (2 Bft)
26.05.2015 01:54 10,8 C 10,0 C 78 % 0 lf 1016,8 hPa 0,0 l/m 0 min 0 min 0 W/m 16,7 km/h (3 Bft)
26.05.2015 01:56 10,8 C 10,0 C 78 % 0 lf 1016,8 hPa 0,0 l/m 0 min 0 min 0 W/m 12,6 km/h (3 Bft)
26.05.2015 01:58 10,7 C 10,0 C 78 % 0 lf 1016,8 hPa 0,0 l/m 0 min 0 min 0 W/m 20,9 km/h (4 Bft)
26.05.2015 02:00 10,7 C 10,0 C 78 % 0 lf 1016,8 hPa 0,0 l/m 0 min 0 min 0 W/m 14,6 km/h (3 Bft)
26.05.2015 02:02 10,7 C 10,0 C 78 % 0 lf 1016,8 hPa 0,0 l/m 0 min 0 min 0 W/m 14,6 km/h (3 Bft)
26.05.2015 02:04 10,7 C 10,0 C 78 % 0 lf 1016,9 hPa 0,0 l/m 0 min 0 min 0 W/m 14,6 km/h (3 Bft)
26.05.2015 02:06 10,7 C 10,0 C 78 % 0 lf 1016,9 hPa 0,0 l/m 0 min 0 min 0 W/m 10,5 km/h (2 Bft)
26.05.2015 02:08 10,6 C 10,0 C 78 % 0 lf 1016,9 hPa 0,0 l/m 0 min 0 min 0 W/m 12,6 km/h (3 Bft)
26.05.2015 02:10 10,6 C 10,0 C 78 % 0 lf 1017,0 hPa 0,0 l/m 0 min 0 min 0 W/m 12,6 km/h (3 Bft)
26.05.2015 02:12 10,6 C 10,0 C 79 % 0 lf 1017,0 hPa 0,0 l/m 0 min 0 min 0 W/m 14,6 km/h (3 Bft)
26.05.2015 02:14 10,6 C 10,0 C 79 % 0 lf 1017,0 hPa 0,0 l/m 0 min 0 min 0 W/m 12,6 km/h (3 Bft)
26.05.2015 02:16 10,6 C 10,0 C 78 % 0 lf 1017,0 hPa 0,0 l/m 0 min 0 min 0 W/m 14,6 km/h (3 Bft)
26.05.2015 02:18 10,6 C 10,0 C 79 % 0 lf 1017,0 hPa 0,0 l/m 0 min 0 min 0 W/m 16,7 km/h (3 Bft)
26.05.2015 02:20 10,6 C 10,0 C 79 % 0 lf 1017,0 hPa 0,0 l/m 0 min 0 min 0 W/m 18,8 km/h (3 Bft)
26.05.2015 02:22 10,6 C 10,0 C 79 % 0 lf 1017,1 hPa 0,0 l/m 0 min 0 min 0 W/m 16,7 km/h (3 Bft)
26.05.2015 02:24 10,6 C 10,0 C 79 % 0 lf 1017,1 hPa 0,0 l/m 0 min 0 min 0 W/m 16,7 km/h (3 Bft)
26.05.2015 02:26 10,5 C 10,0 C 79 % 0 lf 1017,0 hPa 0,0 l/m 0 min 0 min 0 W/m 12,6 km/h (3 Bft)
26.05.2015 02:28 10,5 C 10,0 C 79 % 0 lf 1017,1 hPa 0,0 l/m 0 min 0 min 0 W/m 12,6 km/h (3 Bft)
26.05.2015 02:30 10,5 C 9,4 C 79 % 0 lf 1017,1 hPa 0,0 l/m 0 min 0 min 0 W/m 16,7 km/h (3 Bft)
26.05.2015 02:32 10,5 C 9,4 C 79 % 0 lf 1017,1 hPa 0,0 l/m 0 min 0 min 0 W/m 10,5 km/h (2 Bft)
26.05.2015 02:34 10,4 C 9,4 C 79 % 0 lf 1017,2 hPa 0,0 l/m 0 min 0 min 0 W/m 10,5 km/h (2 Bft)
26.05.2015 02:36 10,4 C 9,4 C 79 % 0 lf 1017,2 hPa 0,0 l/m 0 min 0 min 0 W/m 10,5 km/h (2 Bft)
26.05.2015 02:38 10,4 C 9,4 C 79 % 0 lf 1017,1 hPa 0,0 l/m 0 min 0 min 0 W/m 10,5 km/h (2 Bft)
26.05.2015 02:40 10,4 C 9,4 C 79 % 0 lf 1017,1 hPa 0,0 l/m 0 min 0 min 0 W/m 8,4 km/h (2 Bft)
26.05.2015 02:42 10,4 C 9,4 C 79 % 0 lf 1017,1 hPa 0,0 l/m 0 min 0 min 0 W/m 10,5 km/h (2 Bft)
26.05.2015 02:44 10,4 C 9,4 C 79 % 0 lf 1017,1 hPa 0,0 l/m 0 min 0 min 0 W/m 10,5 km/h (2 Bft)
26.05.2015 02:46 10,4 C 9,4 C 80 % 0 lf 1017,1 hPa 0,0 l/m 0 min 0 min 0 W/m 10,5 km/h (2 Bft)
26.05.2015 02:48 10,4 C 9,4 C 80 % 0 lf 1017,1 hPa 0,0 l/m 0 min 0 min 0 W/m 12,6 km/h (3 Bft)
26.05.2015 02:50 10,3 C 9,4 C 80 % 0 lf 1017,1 hPa 0,0 l/m 0 min 0 min 0 W/m 8,4 km/h (2 Bft)
26.05.2015 02:52 10,3 C 9,4 C 80 % 0 lf 1017,1 hPa 0,0 l/m 0 min 0 min 0 W/m 8,4 km/h (2 Bft)
26.05.2015 02:54 10,3 C 9,4 C 80 % 0 lf 1017,2 hPa 0,0 l/m 0 min 0 min 0 W/m 10,5 km/h (2 Bft)
26.05.2015 02:56 10,3 C 9,4 C 80 % 0 lf 1017,2 hPa 0,0 l/m 0 min 0 min 0 W/m 8,4 km/h (2 Bft)
26.05.2015 02:58 10,3 C 9,4 C 80 % 0 lf 1017,1 hPa 0,0 l/m 0 min 0 min 0 W/m 8,4 km/h (2 Bft)
26.05.2015 03:00 10,3 C 9,4 C 80 % 0 lf 1017,1 hPa 0,0 l/m 0 min 0 min 0 W/m 10,5 km/h (2 Bft)
26.05.2015 03:02 10,3 C 9,4 C 80 % 0 lf 1017,1 hPa 0,0 l/m 0 min 0 min 0 W/m 10,5 km/h (2 Bft)
26.05.2015 03:04 10,3 C 9,4 C 80 % 0 lf 1017,1 hPa 0,0 l/m 0 min 0 min 0 W/m 12,6 km/h (3 Bft)
26.05.2015 03:06 10,2 C 9,4 C 80 % 0 lf 1017,1 hPa 0,0 l/m 0 min 0 min 0 W/m 14,6 km/h (3 Bft)
26.05.2015 03:08 10,2 C 9,4 C 80 % 0 lf 1017,2 hPa 0,0 l/m 0 min 0 min 0 W/m 14,6 km/h (3 Bft)
26.05.2015 03:10 10,2 C 9,4 C 80 % 0 lf 1017,2 hPa 0,0 l/m 0 min 0 min 0 W/m 10,5 km/h (2 Bft)
26.05.2015 03:12 10,2 C 9,4 C 81 % 0 lf 1017,2 hPa 0,0 l/m 0 min 0 min 0 W/m 10,5 km/h (2 Bft)
26.05.2015 03:14 10,2 C 9,4 C 81 % 1 lf 1017,3 hPa 0,0 l/m 0 min 0 min 0 W/m 12,6 km/h (3 Bft)
26.05.2015 03:16 10,2 C 9,4 C 81 % 0 lf 1017,3 hPa 0,0 l/m 0 min 2 min 0 W/m 8,4 km/h (2 Bft)
26.05.2015 03:18 10,2 C 9,4 C 81 % 0 lf 1017,3 hPa 0,0 l/m 0 min 0 min 0 W/m 8,4 km/h (2 Bft)
26.05.2015 03:20 10,1 C 9,4 C 81 % 0 lf 1017,3 hPa 0,0 l/m 0 min 0 min 0 W/m 10,5 km/h (2 Bft)
26.05.2015 03:22 10,1 C 9,4 C 81 % 0 lf 1017,3 hPa 0,0 l/m 0 min 0 min 0 W/m 10,5 km/h (2 Bft)
26.05.2015 03:24 10,1 C 9,4 C 81 % 0 lf 1017,3 hPa 0,0 l/m 0 min 0 min 0 W/m 8,4 km/h (2 Bft)
26.05.2015 03:26 10,1 C 9,4 C 81 % 0 lf 1017,3 hPa 0,0 l/m 0 min 0 min 0 W/m 10,5 km/h (2 Bft)
26.05.2015 03:28 10,1 C 9,4 C 81 % 0 lf 1017,3 hPa 0,0 l/m 0 min 0 min 0 W/m 12,6 km/h (3 Bft)
26.05.2015 03:30 10,1 C 9,4 C 81 % 0 lf 1017,3 hPa 0,0 l/m 0 min 0 min 0 W/m 8,4 km/h (2 Bft)
26.05.2015 03:32 10,1 C 9,4 C 81 % 0 lf 1017,3 hPa 0,0 l/m 0 min 0 min 0 W/m 14,6 km/h (3 Bft)
26.05.2015 03:34 10,0 C 9,4 C 81 % 0 lf 1017,3 hPa 0,0 l/m 0 min 0 min 0 W/m 8,4 km/h (2 Bft)
26.05.2015 03:36 10,0 C 9,4 C 82 % 0 lf 1017,3 hPa 0,0 l/m 0 min 0 min 0 W/m 10,5 km/h (2 Bft)
26.05.2015 03:38 10,0 C 9,4 C 82 % 0 lf 1017,4 hPa 0,0 l/m 0 min 0 min 0 W/m 8,4 km/h (2 Bft)
26.05.2015 03:40 10,0 C 9,4 C 82 % 0 lf 1017,4 hPa 0,0 l/m 0 min 0 min 0 W/m 8,4 km/h (2 Bft)
26.05.2015 03:42 10,0 C 9,4 C 82 % 0 lf 1017,3 hPa 0,0 l/m 0 min 0 min 0 W/m 10,5 km/h (2 Bft)
26.05.2015 03:44 9,9 C 9,4 C 82 % 0 lf 1017,4 hPa 0,0 l/m 0 min 0 min 0 W/m 6,3 km/h (2 Bft)
26.05.2015 03:46 9,9 C 9,4 C 82 % 0 lf 1017,3 hPa 0,0 l/m 0 min 0 min 0 W/m 12,6 km/h (3 Bft)
26.05.2015 03:48 9,9 C 9,4 C 82 % 0 lf 1017,4 hPa 0,0 l/m 0 min 0 min 0 W/m 10,5 km/h (2 Bft)
26.05.2015 03:50 9,9 C 9,4 C 82 % 0 lf 1017,4 hPa 0,0 l/m 0 min 0 min 0 W/m 10,5 km/h (2 Bft)
26.05.2015 03:52 9,9 C 9,4 C 82 % 0 lf 1017,4 hPa 0,0 l/m 0 min 0 min 0 W/m 16,7 km/h (3 Bft)
26.05.2015 03:54 9,9 C 9,4 C 82 % 0 lf 1017,4 hPa 0,0 l/m 0 min 0 min 0 W/m 16,7 km/h (3 Bft)
26.05.2015 03:56 9,9 C 9,4 C 82 % 0 lf 1017,4 hPa 0,0 l/m 0 min 0 min 0 W/m 12,6 km/h (3 Bft)
26.05.2015 03:58 9,9 C 9,4 C 82 % 0 lf 1017,5 hPa 0,0 l/m 0 min 0 min 0 W/m 12,6 km/h (3 Bft)
26.05.2015 04:00 9,9 C 9,4 C 82 % 0 lf 1017,5 hPa 0,0 l/m 0 min 0 min 0 W/m 6,3 km/h (2 Bft)
26.05.2015 04:05 9,8 C 9,4 C 82 % 0 lf 1017,6 hPa 0,0 l/m 0 min 0 min 0 W/m 10,5 km/h (2 Bft)
26.05.2015 04:06 9,8 C 9,4 C 82 % 0 lf 1017,6 hPa 0,0 l/m 0 min 0 min 0 W/m 12,6 km/h (3 Bft)
26.05.2015 04:08 9,8 C 9,4 C 82 % 0 lf 1017,6 hPa 0,0 l/m 0 min 0 min 0 W/m 14,6 km/h (3 Bft)
26.05.2015 04:10 9,8 C 9,4 C 82 % 0 lf 1017,6 hPa 0,0 l/m 0 min 0 min 0 W/m 14,6 km/h (3 Bft)
26.05.2015 04:12 9,8 C 9,4 C 82 % 1 lf 1017,6 hPa 0,0 l/m 0 min 0 min 0 W/m 12,6 km/h (3 Bft)
26.05.2015 04:14 9,8 C 9,4 C 82 % 0 lf 1017,6 hPa 0,0 l/m 0 min 0 min 0 W/m 14,6 km/h (3 Bft)
26.05.2015 04:16 9,8 C 9,4 C 83 % 0 lf 1017,6 hPa 0,0 l/m 0 min 0 min 0 W/m 12,6 km/h (3 Bft)
26.05.2015 04:18 9,8 C 9,4 C 83 % 0 lf 1017,6 hPa 0,0 l/m 0 min 0 min 0 W/m 12,6 km/h (3 Bft)
26.05.2015 04:20 9,8 C 9,4 C 83 % 0 lf 1017,6 hPa 0,0 l/m 0 min 0 min 0 W/m 16,7 km/h (3 Bft)
26.05.2015 04:22 9,8 C 9,4 C 83 % 0 lf 1017,6 hPa 0,0 l/m 0 min 0 min 0 W/m 12,6 km/h (3 Bft)
26.05.2015 04:24 9,8 C 9,4 C 83 % 1 lf 1017,6 hPa 0,0 l/m 0 min 0 min 0 W/m 14,6 km/h (3 Bft)
26.05.2015 04:26 9,7 C 9,4 C 83 % 0 lf 1017,6 hPa 0,0 l/m 0 min 2 min 0 W/m 14,6 km/h (3 Bft)
26.05.2015 04:28 9,7 C 8,9 C 83 % 0 lf 1017,5 hPa 0,0 l/m 0 min 0 min 0 W/m 10,5 km/h (2 Bft)
26.05.2015 04:30 9,7 C 8,9 C 83 % 0 lf 1017,6 hPa 0,0 l/m 0 min 0 min 0 W/m 8,4 km/h (2 Bft)
26.05.2015 04:32 9,7 C 8,9 C 83 % 0 lf 1017,6 hPa 0,0 l/m 0 min 0 min 0 W/m 10,5 km/h (2 Bft)
26.05.2015 04:34 9,7 C 8,9 C 83 % 1 lf 1017,6 hPa 0,0 l/m 0 min 0 min 0 W/m 6,3 km/h (2 Bft)
26.05.2015 04:36 9,7 C 8,9 C 83 % 1 lf 1017,6 hPa 0,0 l/m 0 min 0 min 0 W/m 8,4 km/h (2 Bft)
26.05.2015 04:38 9,7 C 8,9 C 83 % 0 lf 1017,5 hPa 0,0 l/m 0 min 0 min 0 W/m 8,4 km/h (2 Bft)
26.05.2015 04:40 9,7 C 9,4 C 83 % 0 lf 1017,6 hPa 0,0 l/m 0 min 0 min 0 W/m 10,5 km/h (2 Bft)
26.05.2015 04:42 9,7 C 8,9 C 83 % 1 lf 1017,6 hPa 0,0 l/m 0 min 0 min 0 W/m 14,6 km/h (3 Bft)
26.05.2015 04:44 9,7 C 8,9 C 83 % 3 lf 1017,6 hPa 0,0 l/m 0 min 2 min 0 W/m 8,4 km/h (2 Bft)
26.05.2015 04:46 9,7 C 8,9 C 84 % 1 lf 1017,6 hPa 0,0 l/m 0 min 0 min 0 W/m 12,6 km/h (3 Bft)
26.05.2015 04:48 9,7 C 8,9 C 84 % 0 lf 1017,6 hPa 0,0 l/m 0 min 0 min 0 W/m 8,4 km/h (2 Bft)
26.05.2015 04:50 9,7 C 8,9 C 84 % 0 lf 1017,6 hPa 0,0 l/m 0 min 0 min 0 W/m 8,4 km/h (2 Bft)
26.05.2015 04:52 9,7 C 8,9 C 84 % 0 lf 1017,7 hPa 0,0 l/m 0 min 0 min 0 W/m 12,6 km/h (3 Bft)
26.05.2015 04:54 9,7 C 8,9 C 84 % 0 lf 1017,7 hPa 0,0 l/m 0 min 0 min 0 W/m 10,5 km/h (2 Bft)
26.05.2015 04:56 9,6 C 8,9 C 84 % 0 lf 1017,7 hPa 0,0 l/m 0 min 0 min 0 W/m 8,4 km/h (2 Bft)
26.05.2015 04:58 9,6 C 8,9 C 84 % 0 lf 1017,6 hPa 0,0 l/m 0 min 0 min 0 W/m 8,4 km/h (2 Bft)
26.05.2015 05:00 9,6 C 8,9 C 84 % 0 lf 1017,6 hPa 0,0 l/m 0 min 0 min 0 W/m 8,4 km/h (2 Bft)
26.05.2015 05:02 9,6 C 8,9 C 84 % 0 lf 1017,6 hPa 0,0 l/m 0 min 0 min 0 W/m 8,4 km/h (2 Bft)
26.05.2015 05:04 9,6 C 8,9 C 84 % 0 lf 1017,6 hPa 0,0 l/m 0 min 0 min 0 W/m 8,4 km/h (2 Bft)
26.05.2015 05:06 9,6 C 8,9 C 84 % 0 lf 1017,7 hPa 0,0 l/m 0 min 0 min 0 W/m 12,6 km/h (3 Bft)
26.05.2015 05:08 9,6 C 8,9 C 84 % 0 lf 1017,7 hPa 0,0 l/m 0 min 0 min 0 W/m 10,5 km/h (2 Bft)
26.05.2015 05:10 9,6 C 8,9 C 84 % 0 lf 1017,7 hPa 0,0 l/m 0 min 0 min 0 W/m 10,5 km/h (2 Bft)
26.05.2015 05:12 9,5 C 8,9 C 84 % 0 lf 1017,7 hPa 0,0 l/m 0 min 0 min 0 W/m 8,4 km/h (2 Bft)
26.05.2015 05:14 9,5 C 8,9 C 84 % 0 lf 1017,7 hPa 0,0 l/m 0 min 0 min 0 W/m 6,3 km/h (2 Bft)
26.05.2015 05:16 9,5 C 8,9 C 85 % 0 lf 1017,7 hPa 0,0 l/m 0 min 0 min 0 W/m 4,2 km/h (1 Bft)
26.05.2015 05:18 9,5 C 8,9 C 85 % 0 lf 1017,7 hPa 0,0 l/m 0 min 0 min 0 W/m 6,3 km/h (2 Bft)
26.05.2015 05:20 9,5 C 8,9 C 84 % 0 lf 1017,7 hPa 0,0 l/m 0 min 0 min 0 W/m 8,4 km/h (2 Bft)
26.05.2015 05:22 9,5 C 8,9 C 84 % 0 lf 1017,7 hPa 0,0 l/m 0 min 0 min 0 W/m 6,3 km/h (2 Bft)
26.05.2015 05:24 9,5 C 8,9 C 84 % 0 lf 1017,7 hPa 0,0 l/m 0 min 0 min 0 W/m 8,4 km/h (2 Bft)
26.05.2015 05:26 9,4 C 8,9 C 84 % 0 lf 1017,7 hPa 0,0 l/m 0 min 0 min 0 W/m 8,4 km/h (2 Bft)
26.05.2015 05:28 9,4 C 8,9 C 84 % 0 lf 1017,8 hPa 0,0 l/m 0 min 0 min 0 W/m 10,5 km/h (2 Bft)
26.05.2015 05:30 9,4 C 8,9 C 85 % 0 lf 1017,8 hPa 0,0 l/m 0 min 0 min 0 W/m 6,3 km/h (2 Bft)
26.05.2015 05:32 9,4 C 8,9 C 85 % 0 lf 1017,8 hPa 0,0 l/m 0 min 0 min 0 W/m 6,3 km/h (2 Bft)
26.05.2015 05:34 9,4 C 8,9 C 85 % 0 lf 1017,9 hPa 0,0 l/m 0 min 0 min 0 W/m 10,5 km/h (2 Bft)
26.05.2015 05:36 9,4 C 8,9 C 85 % 0 lf 1017,9 hPa 0,0 l/m 0 min 0 min 1 W/m 8,4 km/h (2 Bft)
26.05.2015 05:38 9,4 C 8,9 C 85 % 0 lf 1018,0 hPa 0,0 l/m 0 min 0 min 5 W/m 10,5 km/h (2 Bft)
26.05.2015 05:40 9,4 C 8,9 C 85 % 0 lf 1018,0 hPa 0,0 l/m 0 min 0 min 5 W/m 10,5 km/h (2 Bft)
26.05.2015 05:42 9,4 C 8,9 C 85 % 0 lf 1018,1 hPa 0,0 l/m 0 min 0 min 5 W/m 10,5 km/h (2 Bft)
26.05.2015 05:44 9,4 C 8,9 C 85 % 0 lf 1018,1 hPa 0,0 l/m 0 min 0 min 6 W/m 12,6 km/h (3 Bft)
26.05.2015 05:46 9,3 C 8,9 C 85 % 0 lf 1018,1 hPa 0,0 l/m 0 min 0 min 7 W/m 12,6 km/h (3 Bft)
26.05.2015 05:48 9,3 C 8,9 C 85 % 0 lf 1018,1 hPa 0,0 l/m 0 min 0 min 7 W/m 10,5 km/h (2 Bft)
26.05.2015 05:50 9,3 C 8,9 C 85 % 0 lf 1018,1 hPa 0,0 l/m 0 min 0 min 9 W/m 12,6 km/h (3 Bft)
26.05.2015 05:52 9,3 C 8,9 C 85 % 0 lf 1018,2 hPa 0,0 l/m 0 min 0 min 9 W/m 10,5 km/h (2 Bft)
26.05.2015 05:54 9,3 C 8,9 C 85 % 0 lf 1018,2 hPa 0,0 l/m 0 min 0 min 11 W/m 8,4 km/h (2 Bft)
26.05.2015 05:56 9,3 C 8,9 C 85 % 0 lf 1018,2 hPa 0,0 l/m 0 min 0 min 11 W/m 8,4 km/h (2 Bft)
26.05.2015 05:58 9,3 C 8,9 C 85 % 0 lf 1018,2 hPa 0,0 l/m 0 min 0 min 12 W/m 8,4 km/h (2 Bft)
26.05.2015 06:00 9,3 C 8,9 C 85 % 0 lf 1018,2 hPa 0,0 l/m 0 min 0 min 12 W/m 8,4 km/h (2 Bft)
26.05.2015 06:02 9,2 C 8,9 C 85 % 0 lf 1018,2 hPa 0,0 l/m 0 min 0 min 13 W/m 6,3 km/h (2 Bft)
26.05.2015 06:06 9,2 C 8,9 C 84 % 0 lf 1018,2 hPa 0,0 l/m 0 min 0 min 15 W/m 10,5 km/h (2 Bft)
26.05.2015 06:08 9,2 C 8,9 C 84 % 0 lf 1018,2 hPa 0,0 l/m 0 min 0 min 18 W/m 8,4 km/h (2 Bft)
26.05.2015 06:10 9,2 C 8,9 C 84 % 0 lf 1018,3 hPa 0,0 l/m 0 min 0 min 19 W/m 8,4 km/h (2 Bft)
26.05.2015 06:12 9,2 C 8,9 C 85 % 0 lf 1018,3 hPa 0,0 l/m 0 min 0 min 19 W/m 8,4 km/h (2 Bft)
26.05.2015 06:14 9,2 C 8,9 C 85 % 0 lf 1018,4 hPa 0,0 l/m 0 min 0 min 19 W/m 6,3 km/h (2 Bft)
26.05.2015 06:16 9,2 C 8,9 C 85 % 0 lf 1018,4 hPa 0,0 l/m 0 min 0 min 19 W/m 6,3 km/h (2 Bft)
26.05.2015 06:18 9,2 C 8,9 C 85 % 0 lf 1018,4 hPa 0,0 l/m 0 min 0 min 21 W/m 6,3 km/h (2 Bft)
26.05.2015 06:20 9,2 C 8,9 C 85 % 0 lf 1018,4 hPa 0,0 l/m 0 min 0 min 22 W/m 4,2 km/h (1 Bft)
26.05.2015 06:22 9,2 C 8,9 C 85 % 0 lf 1018,4 hPa 0,0 l/m 0 min 0 min 23 W/m 6,3 km/h (2 Bft)
26.05.2015 06:24 9,2 C 8,9 C 85 % 0 lf 1018,5 hPa 0,0 l/m 0 min 0 min 25 W/m 10,5 km/h (2 Bft)
26.05.2015 06:26 9,2 C 9,4 C 85 % 0 lf 1018,4 hPa 0,0 l/m 0 min 0 min 27 W/m 6,3 km/h (2 Bft)
26.05.2015 06:28 9,2 C 9,4 C 85 % 0 lf 1018,4 hPa 0,0 l/m 0 min 0 min 29 W/m 4,2 km/h (1 Bft)
26.05.2015 06:30 9,3 C 9,4 C 85 % 0 lf 1018,4 hPa 0,0 l/m 0 min 0 min 32 W/m 8,4 km/h (2 Bft)
26.05.2015 06:32 9,3 C 9,4 C 85 % 0 lf 1018,5 hPa 0,0 l/m 0 min 0 min 34 W/m 6,3 km/h (2 Bft)
26.05.2015 06:34 9,3 C 9,4 C 85 % 0 lf 1018,5 hPa 0,0 l/m 0 min 0 min 36 W/m 8,4 km/h (2 Bft)
26.05.2015 06:36 9,3 C 9,4 C 85 % 0 lf 1018,5 hPa 0,0 l/m 0 min 0 min 39 W/m 6,3 km/h (2 Bft)
26.05.2015 06:38 9,3 C 9,4 C 85 % 0 lf 1018,5 hPa 0,0 l/m 0 min 0 min 41 W/m 6,3 km/h (2 Bft)
26.05.2015 06:40 9,3 C 9,4 C 85 % 0 lf 1018,5 hPa 0,0 l/m 0 min 0 min 43 W/m 4,2 km/h (1 Bft)
26.05.2015 06:42 9,3 C 9,4 C 86 % 0 lf 1018,6 hPa 0,0 l/m 0 min 0 min 45 W/m 6,3 km/h (2 Bft)
26.05.2015 06:44 9,3 C 9,4 C 86 % 0 lf 1018,6 hPa 0,0 l/m 0 min 0 min 47 W/m 6,3 km/h (2 Bft)
26.05.2015 06:46 9,3 C 9,4 C 86 % 0 lf 1018,6 hPa 0,0 l/m 0 min 0 min 49 W/m 4,2 km/h (1 Bft)
26.05.2015 06:48 9,3 C 9,4 C 86 % 0 lf 1018,7 hPa 0,0 l/m 0 min 0 min 52 W/m 10,5 km/h (2 Bft)
26.05.2015 06:50 9,3 C 9,4 C 86 % 0 lf 1018,6 hPa 0,0 l/m 0 min 0 min 53 W/m 8,4 km/h (2 Bft)
26.05.2015 06:52 9,3 C 9,4 C 86 % 0 lf 1018,6 hPa 0,0 l/m 0 min 0 min 54 W/m 8,4 km/h (2 Bft)
26.05.2015 06:54 9,4 C 9,4 C 86 % 0 lf 1018,6 hPa 0,0 l/m 0 min 0 min 53 W/m 6,3 km/h (2 Bft)
26.05.2015 06:56 9,4 C 9,4 C 86 % 0 lf 1018,7 hPa 0,0 l/m 0 min 0 min 54 W/m 6,3 km/h (2 Bft)
26.05.2015 06:58 9,4 C 9,4 C 86 % 0 lf 1018,6 hPa 0,0 l/m 0 min 0 min 60 W/m 6,3 km/h (2 Bft)
26.05.2015 07:00 9,4 C 9,4 C 86 % 0 lf 1018,6 hPa 0,0 l/m 0 min 0 min 63 W/m 10,5 km/h (2 Bft)
26.05.2015 07:02 9,4 C 9,4 C 86 % 0 lf 1018,7 hPa 0,0 l/m 0 min 0 min 68 W/m 6,3 km/h (2 Bft)
26.05.2015 07:04 9,4 C 9,4 C 86 % 0 lf 1018,7 hPa 0,0 l/m 0 min 0 min 72 W/m 12,6 km/h (3 Bft)
26.05.2015 07:06 9,4 C 9,4 C 86 % 0 lf 1018,7 hPa 0,0 l/m 0 min 0 min 76 W/m 10,5 km/h (2 Bft)
26.05.2015 07:08 9,4 C 9,4 C 86 % 0 lf 1018,7 hPa 0,0 l/m 0 min 0 min 77 W/m 10,5 km/h (2 Bft)
26.05.2015 07:10 9,5 C 9,4 C 86 % 0 lf 1018,7 hPa 0,0 l/m 0 min 0 min 78 W/m 8,4 km/h (2 Bft)
26.05.2015 07:12 9,5 C 9,4 C 87 % 0 lf 1018,7 hPa 0,0 l/m 0 min 0 min 80 W/m 10,5 km/h (2 Bft)
26.05.2015 07:14 9,6 C 9,4 C 87 % 0 lf 1018,8 hPa 0,0 l/m 0 min 0 min 84 W/m 8,4 km/h (2 Bft)
26.05.2015 07:16 9,6 C 9,4 C 87 % 0 lf 1018,7 hPa 0,0 l/m 0 min 0 min 88 W/m 10,5 km/h (2 Bft)
26.05.2015 07:18 9,6 C 9,4 C 87 % 0 lf 1018,7 hPa 0,0 l/m 0 min 0 min 92 W/m 8,4 km/h (2 Bft)
26.05.2015 07:20 9,6 C 10,0 C 87 % 0 lf 1018,7 hPa 0,0 l/m 0 min 0 min 96 W/m 10,5 km/h (2 Bft)
26.05.2015 07:22 9,7 C 9,4 C 87 % 0 lf 1018,7 hPa 0,0 l/m 0 min 0 min 99 W/m 10,5 km/h (2 Bft)
26.05.2015 07:24 9,7 C 10,0 C 87 % 0 lf 1018,8 hPa 0,0 l/m 0 min 0 min 102 W/m 8,4 km/h (2 Bft)
26.05.2015 07:26 9,7 C 10,0 C 87 % 0 lf 1018,7 hPa 0,0 l/m 0 min 0 min 108 W/m 8,4 km/h (2 Bft)
26.05.2015 07:28 9,8 C 10,0 C 87 % 0 lf 1018,8 hPa 0,0 l/m 0 min 0 min 114 W/m 10,5 km/h (2 Bft)
26.05.2015 07:30 9,8 C 10,0 C 87 % 0 lf 1018,8 hPa 0,0 l/m 0 min 0 min 116 W/m 10,5 km/h (2 Bft)
26.05.2015 07:32 9,8 C 10,0 C 87 % 0 lf 1018,7 hPa 0,0 l/m 0 min 0 min 116 W/m 8,4 km/h (2 Bft)
26.05.2015 07:34 9,8 C 10,0 C 87 % 0 lf 1018,8 hPa 0,0 l/m 0 min 0 min 120 W/m 8,4 km/h (2 Bft)
26.05.2015 07:36 9,9 C 10,0 C 87 % 0 lf 1018,8 hPa 0,0 l/m 0 min 0 min 127 W/m 14,6 km/h (3 Bft)
26.05.2015 07:38 9,9 C 10,0 C 87 % 0 lf 1018,8 hPa 0,0 l/m 0 min 0 min 132 W/m 10,5 km/h (2 Bft)
26.05.2015 07:40 9,9 C 10,0 C 87 % 0 lf 1018,9 hPa 0,0 l/m 0 min 0 min 131 W/m 12,6 km/h (3 Bft)
26.05.2015 07:42 9,9 C 10,0 C 87 % 0 lf 1018,9 hPa 0,0 l/m 0 min 0 min 132 W/m 10,5 km/h (2 Bft)
26.05.2015 07:44 10,0 C 10,0 C 87 % 0 lf 1018,9 hPa 0,0 l/m 0 min 0 min 134 W/m 10,5 km/h (2 Bft)
26.05.2015 07:46 10,0 C 10,0 C 87 % 0 lf 1018,9 hPa 0,0 l/m 0 min 0 min 131 W/m 12,6 km/h (3 Bft)
26.05.2015 07:48 10,1 C 10,0 C 87 % 0 lf 1018,9 hPa 0,0 l/m 0 min 0 min 129 W/m 12,6 km/h (3 Bft)
26.05.2015 07:50 10,1 C 10,0 C 87 % 0 lf 1018,9 hPa 0,0 l/m 0 min 0 min 127 W/m 10,5 km/h (2 Bft)
26.05.2015 07:52 10,1 C 10,0 C 87 % 0 lf 1018,9 hPa 0,0 l/m 0 min 0 min 127 W/m 12,6 km/h (3 Bft)
26.05.2015 07:54 10,2 C 10,0 C 87 % 0 lf 1018,9 hPa 0,0 l/m 0 min 0 min 129 W/m 10,5 km/h (2 Bft)
26.05.2015 07:56 10,2 C 10,6 C 86 % 0 lf 1018,9 hPa 0,0 l/m 0 min 0 min 132 W/m 8,4 km/h (2 Bft)
26.05.2015 07:58 10,2 C 10,6 C 86 % 0 lf 1019,0 hPa 0,0 l/m 0 min 0 min 137 W/m 12,6 km/h (3 Bft)
26.05.2015 08:00 10,3 C 10,6 C 86 % 0 lf 1019,0 hPa 0,0 l/m 0 min 0 min 146 W/m 8,4 km/h (2 Bft)
26.05.2015 08:02 10,3 C 10,0 C 86 % 0 lf 1019,1 hPa 0,0 l/m 0 min 0 min 151 W/m 14,6 km/h (3 Bft)
26.05.2015 08:04 10,3 C 10,6 C 85 % 0 lf 1019,1 hPa 0,0 l/m 0 min 0 min 154 W/m 10,5 km/h (2 Bft)
26.05.2015 08:06 10,3 C 10,6 C 85 % 0 lf 1019,1 hPa 0,0 l/m 0 min 0 min 161 W/m 16,7 km/h (3 Bft)
26.05.2015 08:08 10,3 C 10,0 C 84 % 0 lf 1019,1 hPa 0,0 l/m 0 min 0 min 166 W/m 16,7 km/h (3 Bft)
26.05.2015 08:10 10,3 C 10,6 C 84 % 0 lf 1019,1 hPa 0,0 l/m 0 min 0 min 163 W/m 18,8 km/h (3 Bft)
26.05.2015 08:12 10,3 C 10,6 C 84 % 0 lf 1019,1 hPa 0,0 l/m 0 min 0 min 164 W/m 10,5 km/h (2 Bft)
26.05.2015 08:14 10,4 C 10,6 C 84 % 0 lf 1019,1 hPa 0,0 l/m 0 min 0 min 169 W/m 12,6 km/h (3 Bft)
26.05.2015 08:16 10,4 C 10,6 C 84 % 0 lf 1019,1 hPa 0,0 l/m 0 min 0 min 175 W/m 12,6 km/h (3 Bft)
26.05.2015 08:18 10,4 C 10,6 C 84 % 0 lf 1019,2 hPa 0,0 l/m 0 min 0 min 180 W/m 14,6 km/h (3 Bft)
26.05.2015 08:20 10,5 C 10,6 C 83 % 0 lf 1019,3 hPa 0,0 l/m 0 min 0 min 183 W/m 14,6 km/h (3 Bft)
26.05.2015 08:22 10,5 C 10,6 C 83 % 0 lf 1019,3 hPa 0,0 l/m 0 min 0 min 187 W/m 14,6 km/h (3 Bft)
26.05.2015 08:24 10,6 C 10,6 C 83 % 0 lf 1019,2 hPa 0,0 l/m 0 min 0 min 196 W/m 14,6 km/h (3 Bft)
26.05.2015 08:26 10,6 C 10,6 C 83 % 0 lf 1019,3 hPa 0,0 l/m 0 min 0 min 201 W/m 18,8 km/h (3 Bft)
26.05.2015 08:28 10,6 C 10,6 C 81 % 0 lf 1019,3 hPa 0,0 l/m 0 min 0 min 202 W/m 14,6 km/h (3 Bft)
26.05.2015 08:30 10,6 C 10,6 C 81 % 0 lf 1019,3 hPa 0,0 l/m 0 min 0 min 205 W/m 10,5 km/h (2 Bft)
26.05.2015 08:32 10,6 C 10,6 C 81 % 0 lf 1019,4 hPa 0,0 l/m 2 min 0 min 213 W/m 16,7 km/h (3 Bft)
26.05.2015 08:34 10,7 C 10,6 C 80 % 0 lf 1019,4 hPa 0,0 l/m 2 min 0 min 222 W/m 16,7 km/h (3 Bft)
26.05.2015 08:36 10,7 C 10,6 C 80 % 0 lf 1019,4 hPa 0,0 l/m 2 min 0 min 233 W/m 8,4 km/h (2 Bft)
26.05.2015 08:38 10,7 C 10,6 C 80 % 0 lf 1019,4 hPa 0,0 l/m 2 min 0 min 242 W/m 12,6 km/h (3 Bft)
26.05.2015 08:40 10,7 C 11,1 C 79 % 0 lf 1019,4 hPa 0,0 l/m 2 min 0 min 241 W/m 12,6 km/h (3 Bft)
26.05.2015 08:42 10,8 C 11,1 C 79 % 0 lf 1019,4 hPa 0,0 l/m 2 min 0 min 243 W/m 12,6 km/h (3 Bft)
26.05.2015 08:44 10,8 C 11,1 C 79 % 0 lf 1019,4 hPa 0,0 l/m 2 min 0 min 248 W/m 12,6 km/h (3 Bft)
26.05.2015 08:46 10,8 C 11,1 C 78 % 0 lf 1019,5 hPa 0,0 l/m 2 min 0 min 254 W/m 8,4 km/h (2 Bft)
26.05.2015 08:48 10,9 C 11,1 C 78 % 0 lf 1019,4 hPa 0,0 l/m 2 min 0 min 266 W/m 8,4 km/h (2 Bft)
26.05.2015 08:50 10,9 C 11,1 C 79 % 0 lf 1019,4 hPa 0,0 l/m 2 min 0 min 273 W/m 14,6 km/h (3 Bft)
26.05.2015 08:52 11,0 C 11,1 C 78 % 0 lf 1019,4 hPa 0,0 l/m 2 min 0 min 280 W/m 18,8 km/h (3 Bft)
26.05.2015 08:54 11,0 C 11,1 C 78 % 0 lf 1019,4 hPa 0,0 l/m 2 min 0 min 288 W/m 14,6 km/h (3 Bft)
26.05.2015 08:56 11,1 C 11,1 C 77 % 0 lf 1019,4 hPa 0,0 l/m 2 min 0 min 297 W/m 14,6 km/h (3 Bft)
26.05.2015 08:58 11,1 C 11,1 C 77 % 0 lf 1019,4 hPa 0,0 l/m 2 min 0 min 300 W/m 14,6 km/h (3 Bft)
26.05.2015 09:00 11,1 C 11,1 C 76 % 0 lf 1019,5 hPa 0,0 l/m 2 min 0 min 298 W/m 10,5 km/h (2 Bft)
26.05.2015 09:02 11,2 C 11,1 C 76 % 0 lf 1019,4 hPa 0,0 l/m 2 min 0 min 307 W/m 12,6 km/h (3 Bft)
26.05.2015 09:04 11,2 C 11,1 C 76 % 0 lf 1019,5 hPa 0,0 l/m 2 min 0 min 309 W/m 12,6 km/h (3 Bft)
26.05.2015 09:06 11,3 C 11,7 C 76 % 0 lf 1019,4 hPa 0,0 l/m 2 min 0 min 312 W/m 8,4 km/h (2 Bft)
26.05.2015 09:08 11,4 C 11,7 C 77 % 0 lf 1019,5 hPa 0,0 l/m 2 min 0 min 315 W/m 12,6 km/h (3 Bft)
26.05.2015 09:10 11,4 C 11,7 C 76 % 0 lf 1019,4 hPa 0,0 l/m 2 min 0 min 317 W/m 12,6 km/h (3 Bft)
26.05.2015 09:12 11,5 C 11,7 C 76 % 0 lf 1019,4 hPa 0,0 l/m 2 min 0 min 325 W/m 12,6 km/h (3 Bft)
26.05.2015 09:14 11,6 C 11,7 C 75 % 0 lf 1019,4 hPa 0,0 l/m 2 min 0 min 325 W/m 10,5 km/h (2 Bft)
26.05.2015 09:16 11,6 C 11,7 C 74 % 0 lf 1019,5 hPa 0,0 l/m 2 min 0 min 326 W/m 18,8 km/h (3 Bft)
26.05.2015 09:18 11,6 C 11,7 C 74 % 0 lf 1019,5 hPa 0,0 l/m 2 min 0 min 338 W/m 14,6 km/h (3 Bft)
26.05.2015 09:20 11,7 C 11,7 C 73 % 0 lf 1019,5 hPa 0,0 l/m 2 min 0 min 343 W/m 18,8 km/h (3 Bft)
26.05.2015 09:22 11,7 C 11,7 C 73 % 0 lf 1019,5 hPa 0,0 l/m 2 min 0 min 355 W/m 10,5 km/h (2 Bft)
26.05.2015 09:24 11,8 C 11,7 C 72 % 0 lf 1019,6 hPa 0,0 l/m 2 min 0 min 358 W/m 16,7 km/h (3 Bft)
26.05.2015 09:26 11,8 C 11,7 C 72 % 0 lf 1019,7 hPa 0,0 l/m 2 min 0 min 355 W/m 16,7 km/h (3 Bft)
26.05.2015 09:28 11,9 C 11,7 C 72 % 0 lf 1019,7 hPa 0,0 l/m 2 min 0 min 342 W/m 14,6 km/h (3 Bft)
26.05.2015 09:30 11,9 C 12,2 C 71 % 0 lf 1019,7 hPa 0,0 l/m 2 min 0 min 377 W/m 12,6 km/h (3 Bft)
26.05.2015 09:32 12,0 C 12,2 C 72 % 0 lf 1019,7 hPa 0,0 l/m 2 min 0 min 372 W/m 10,5 km/h (2 Bft)
26.05.2015 09:34 12,1 C 12,2 C 72 % 0 lf 1019,6 hPa 0,0 l/m 2 min 0 min 386 W/m 14,6 km/h (3 Bft)
26.05.2015 09:36 12,1 C 12,2 C 71 % 0 lf 1019,6 hPa 0,0 l/m 2 min 0 min 402 W/m 14,6 km/h (3 Bft)
26.05.2015 09:38 12,2 C 12,2 C 71 % 0 lf 1019,6 hPa 0,0 l/m 2 min 0 min 407 W/m 14,6 km/h (3 Bft)
26.05.2015 09:40 12,2 C 12,2 C 70 % 0 lf 1019,6 hPa 0,0 l/m 2 min 0 min 417 W/m 12,6 km/h (3 Bft)
26.05.2015 09:42 12,3 C 12,2 C 70 % 0 lf 1019,5 hPa 0,0 l/m 2 min 0 min 404 W/m 10,5 km/h (2 Bft)
26.05.2015 09:44 12,3 C 12,2 C 70 % 0 lf 1019,6 hPa 0,0 l/m 2 min 0 min 417 W/m 14,6 km/h (3 Bft)
26.05.2015 09:46 12,4 C 12,8 C 70 % 0 lf 1019,7 hPa 0,0 l/m 2 min 0 min 447 W/m 12,6 km/h (3 Bft)
26.05.2015 09:48 12,5 C 12,2 C 70 % 0 lf 1019,7 hPa 0,0 l/m 2 min 0 min 446 W/m 16,7 km/h (3 Bft)
26.05.2015 09:50 12,5 C 12,8 C 70 % 0 lf 1019,7 hPa 0,0 l/m 2 min 0 min 433 W/m 14,6 km/h (3 Bft)
26.05.2015 09:52 12,6 C 12,8 C 69 % 0 lf 1019,7 hPa 0,0 l/m 2 min 0 min 440 W/m 18,8 km/h (3 Bft)
26.05.2015 09:54 12,6 C 12,8 C 69 % 0 lf 1019,8 hPa 0,0 l/m 2 min 0 min 423 W/m 16,7 km/h (3 Bft)
26.05.2015 09:56 12,6 C 12,8 C 68 % 0 lf 1019,9 hPa 0,0 l/m 2 min 0 min 446 W/m 20,9 km/h (4 Bft)
26.05.2015 09:58 12,7 C 12,8 C 67 % 0 lf 1019,9 hPa 0,0 l/m 2 min 0 min 478 W/m 16,7 km/h (3 Bft)
26.05.2015 10:00 12,7 C 12,8 C 68 % 0 lf 1019,9 hPa 0,0 l/m 2 min 0 min 477 W/m 16,7 km/h (3 Bft)
26.05.2015 10:02 12,8 C 12,8 C 68 % 0 lf 1019,8 hPa 0,0 l/m 2 min 0 min 444 W/m 18,8 km/h (3 Bft)
26.05.2015 10:04 12,8 C 13,3 C 68 % 0 lf 1019,7 hPa 0,0 l/m 2 min 0 min 392 W/m 8,4 km/h (2 Bft)
26.05.2015 10:06 12,9 C 13,3 C 69 % 0 lf 1019,9 hPa 0,0 l/m 2 min 0 min 356 W/m 12,6 km/h (3 Bft)
26.05.2015 10:08 13,1 C 13,3 C 69 % 0 lf 1019,8 hPa 0,0 l/m 2 min 0 min 395 W/m 10,5 km/h (2 Bft)
26.05.2015 10:10 13,2 C 13,3 C 70 % 0 lf 1019,8 hPa 0,0 l/m 2 min 0 min 448 W/m 16,7 km/h (3 Bft)
26.05.2015 10:12 13,2 C 13,3 C 69 % 0 lf 1019,8 hPa 0,0 l/m 2 min 0 min 348 W/m 25,1 km/h (4 Bft)
26.05.2015 10:14 13,3 C 13,3 C 66 % 0 lf 1019,9 hPa 0,0 l/m 2 min 0 min 366 W/m 14,6 km/h (3 Bft)
26.05.2015 10:16 13,3 C 13,9 C 66 % 0 lf 1019,9 hPa 0,0 l/m 2 min 0 min 615 W/m 12,6 km/h (3 Bft)
26.05.2015 10:18 13,4 C 14,4 C 67 % 0 lf 1019,8 hPa 0,0 l/m 2 min 0 min 559 W/m 14,6 km/h (3 Bft)
26.05.2015 10:20 13,6 C 13,9 C 66 % 0 lf 1019,9 hPa 0,0 l/m 2 min 0 min 462 W/m 20,9 km/h (4 Bft)
26.05.2015 10:22 13,6 C 13,9 C 65 % 0 lf 1019,9 hPa 0,0 l/m 2 min 0 min 419 W/m 18,8 km/h (3 Bft)
26.05.2015 10:24 13,6 C 13,9 C 65 % 0 lf 1019,8 hPa 0,0 l/m 2 min 0 min 584 W/m 14,6 km/h (3 Bft)
26.05.2015 10:26 13,7 C 14,4 C 66 % 0 lf 1019,9 hPa 0,0 l/m 2 min 0 min 627 W/m 10,5 km/h (2 Bft)
26.05.2015 10:28 13,7 C 13,9 C 65 % 0 lf 1019,9 hPa 0,0 l/m 2 min 0 min 600 W/m 20,9 km/h (4 Bft)
26.05.2015 10:30 13,8 C 13,9 C 65 % 0 lf 1019,8 hPa 0,0 l/m 2 min 0 min 730 W/m 16,7 km/h (3 Bft)
26.05.2015 10:32 13,8 C 13,9 C 65 % 0 lf 1019,9 hPa 0,0 l/m 2 min 0 min 640 W/m 16,7 km/h (3 Bft)
26.05.2015 10:34 13,9 C 13,9 C 65 % 0 lf 1019,7 hPa 0,0 l/m 2 min 0 min 669 W/m 12,6 km/h (3 Bft)
26.05.2015 10:36 14,1 C 14,4 C 67 % 0 lf 1019,8 hPa 0,0 l/m 2 min 0 min 709 W/m 16,7 km/h (3 Bft)
26.05.2015 10:38 14,2 C 14,4 C 66 % 0 lf 1019,8 hPa 0,0 l/m 2 min 0 min 767 W/m 12,6 km/h (3 Bft)
26.05.2015 10:40 14,2 C 14,4 C 64 % 0 lf 1019,8 hPa 0,0 l/m 2 min 0 min 772 W/m 16,7 km/h (3 Bft)
26.05.2015 10:42 14,4 C 15,0 C 65 % 0 lf 1019,8 hPa 0,0 l/m 2 min 0 min 785 W/m 14,6 km/h (3 Bft)
26.05.2015 10:44 14,6 C 15,0 C 65 % 0 lf 1019,8 hPa 0,0 l/m 2 min 0 min 797 W/m 16,7 km/h (3 Bft)
26.05.2015 10:46 14,7 C 15,0 C 63 % 0 lf 1019,8 hPa 0,0 l/m 2 min 0 min 569 W/m 16,7 km/h (3 Bft)
26.05.2015 10:48 14,7 C 14,4 C 62 % 0 lf 1019,9 hPa 0,0 l/m 2 min 0 min 408 W/m 16,7 km/h (3 Bft)
26.05.2015 10:50 14,7 C 13,9 C 62 % 0 lf 1019,9 hPa 0,0 l/m 0 min 0 min 270 W/m 16,7 km/h (3 Bft)
26.05.2015 10:52 14,6 C 13,3 C 63 % 0 lf 1019,9 hPa 0,0 l/m 0 min 0 min 223 W/m 18,8 km/h (3 Bft)
26.05.2015 10:54 14,6 C 13,3 C 63 % 0 lf 1019,9 hPa 0,0 l/m 0 min 0 min 197 W/m 16,7 km/h (3 Bft)
26.05.2015 10:56 14,4 C 12,8 C 63 % 0 lf 1019,9 hPa 0,0 l/m 0 min 0 min 168 W/m 18,8 km/h (3 Bft)
26.05.2015 10:58 14,4 C 12,8 C 62 % 0 lf 1019,9 hPa 0,0 l/m 0 min 0 min 150 W/m 16,7 km/h (3 Bft)
26.05.2015 11:00 14,3 C 12,8 C 62 % 0 lf 1020,0 hPa 0,0 l/m 0 min 0 min 148 W/m 18,8 km/h (3 Bft)
26.05.2015 11:02 14,2 C 12,8 C 62 % 0 lf 1019,9 hPa 0,0 l/m 0 min 0 min 151 W/m 18,8 km/h (3 Bft)
26.05.2015 11:04 14,2 C 12,8 C 62 % 0 lf 1020,0 hPa 0,0 l/m 0 min 0 min 154 W/m 10,5 km/h (2 Bft)
26.05.2015 11:06 14,2 C 12,8 C 63 % 0 lf 1020,0 hPa 0,0 l/m 0 min 0 min 159 W/m 14,6 km/h (3 Bft)
26.05.2015 11:08 14,1 C 12,8 C 63 % 0 lf 1020,0 hPa 0,0 l/m 0 min 0 min 169 W/m 14,6 km/h (3 Bft)
26.05.2015 11:10 13,9 C 12,8 C 63 % 0 lf 1020,0 hPa 0,0 l/m 0 min 0 min 178 W/m 14,6 km/h (3 Bft)
26.05.2015 11:12 13,9 C 12,8 C 62 % 0 lf 1020,0 hPa 0,0 l/m 0 min 0 min 187 W/m 16,7 km/h (3 Bft)
26.05.2015 11:14 13,8 C 12,8 C 63 % 0 lf 1020,0 hPa 0,0 l/m 0 min 0 min 200 W/m 16,7 km/h (3 Bft)
26.05.2015 11:16 13,8 C 12,8 C 64 % 0 lf 1020,0 hPa 0,0 l/m 0 min 0 min 231 W/m 16,7 km/h (3 Bft)
26.05.2015 11:18 13,8 C 12,8 C 64 % 0 lf 1020,0 hPa 0,0 l/m 0 min 0 min 253 W/m 12,6 km/h (3 Bft)
26.05.2015 11:20 13,8 C 12,8 C 65 % 0 lf 1020,0 hPa 0,0 l/m 0 min 0 min 257 W/m 10,5 km/h (2 Bft)
26.05.2015 11:22 13,8 C 13,3 C 65 % 0 lf 1020,0 hPa 0,0 l/m 0 min 0 min 248 W/m 12,6 km/h (3 Bft)
26.05.2015 11:24 13,8 C 13,3 C 65 % 0 lf 1020,1 hPa 0,0 l/m 0 min 0 min 236 W/m 14,6 km/h (3 Bft)
26.05.2015 11:26 13,8 C 13,3 C 65 % 0 lf 1020,1 hPa 0,0 l/m 0 min 0 min 220 W/m 14,6 km/h (3 Bft)
26.05.2015 11:28 13,8 C 12,8 C 64 % 0 lf 1020,1 hPa 0,0 l/m 0 min 0 min 210 W/m 18,8 km/h (3 Bft)
26.05.2015 11:30 13,8 C 12,8 C 64 % 0 lf 1020,1 hPa 0,0 l/m 0 min 0 min 205 W/m 10,5 km/h (2 Bft)
26.05.2015 11:32 13,8 C 12,8 C 65 % 0 lf 1020,1 hPa 0,0 l/m 0 min 0 min 213 W/m 12,6 km/h (3 Bft)
26.05.2015 11:34 13,8 C 13,3 C 65 % 0 lf 1020,0 hPa 0,0 l/m 0 min 0 min 226 W/m 14,6 km/h (3 Bft)
26.05.2015 11:36 13,8 C 13,3 C 64 % 0 lf 1020,0 hPa 0,0 l/m 0 min 0 min 244 W/m 14,6 km/h (3 Bft)
26.05.2015 11:38 13,8 C 13,3 C 65 % 0 lf 1020,1 hPa 0,0 l/m 0 min 0 min 264 W/m 8,4 km/h (2 Bft)
26.05.2015 11:40 13,8 C 13,3 C 65 % 0 lf 1020,0 hPa 0,0 l/m 0 min 0 min 296 W/m 14,6 km/h (3 Bft)
26.05.2015 11:42 13,9 C 13,3 C 65 % 0 lf 1020,1 hPa 0,0 l/m 0 min 0 min 326 W/m 14,6 km/h (3 Bft)
26.05.2015 11:44 13,9 C 13,9 C 65 % 0 lf 1020,0 hPa 0,0 l/m 0 min 0 min 338 W/m 14,6 km/h (3 Bft)
26.05.2015 11:46 14,1 C 13,9 C 65 % 0 lf 1020,1 hPa 0,0 l/m 2 min 0 min 395 W/m 14,6 km/h (3 Bft)
26.05.2015 11:48 14,2 C 14,4 C 65 % 0 lf 1020,0 hPa 0,0 l/m 2 min 0 min 557 W/m 16,7 km/h (3 Bft)
26.05.2015 11:50 14,2 C 14,4 C 64 % 0 lf 1020,1 hPa 0,0 l/m 2 min 0 min 561 W/m 20,9 km/h (4 Bft)
26.05.2015 11:52 14,2 C 15,0 C 64 % 0 lf 1020,0 hPa 0,0 l/m 2 min 0 min 500 W/m 10,5 km/h (2 Bft)
26.05.2015 11:54 14,4 C 15,0 C 64 % 0 lf 1020,0 hPa 0,0 l/m 2 min 0 min 470 W/m 16,7 km/h (3 Bft)
26.05.2015 11:56 14,6 C 15,0 C 64 % 0 lf 1020,0 hPa 0,0 l/m 2 min 0 min 450 W/m 20,9 km/h (4 Bft)
26.05.2015 11:58 14,7 C 15,0 C 63 % 0 lf 1020,0 hPa 0,0 l/m 2 min 0 min 445 W/m 23,0 km/h (4 Bft)
26.05.2015 12:00 14,8 C 15,0 C 63 % 0 lf 1020,0 hPa 0,0 l/m 2 min 0 min 493 W/m 25,1 km/h (4 Bft)
26.05.2015 12:02 14,8 C 15,6 C 63 % 0 lf 1020,0 hPa 0,0 l/m 2 min 0 min 735 W/m 16,7 km/h (3 Bft)
26.05.2015 12:06 15,1 C 15,6 C 61 % 0 lf 1019,9 hPa 0,0 l/m 2 min 0 min 704 W/m 16,7 km/h (3 Bft)
26.05.2015 12:08 15,2 C 15,6 C 61 % 0 lf 1019,9 hPa 0,0 l/m 2 min 0 min 430 W/m 18,8 km/h (3 Bft)
26.05.2015 12:10 15,2 C 15,0 C 59 % 0 lf 1020,0 hPa 0,0 l/m 0 min 0 min 374 W/m 20,9 km/h (4 Bft)
26.05.2015 12:12 15,3 C 15,0 C 58 % 0 lf 1019,9 hPa 0,0 l/m 0 min 0 min 350 W/m 14,6 km/h (3 Bft)
26.05.2015 12:14 15,3 C 15,0 C 59 % 0 lf 1019,9 hPa 0,0 l/m 0 min 0 min 334 W/m 12,6 km/h (3 Bft)
26.05.2015 12:16 15,3 C 15,0 C 59 % 0 lf 1019,9 hPa 0,0 l/m 0 min 0 min 336 W/m 8,4 km/h (2 Bft)
26.05.2015 12:18 15,3 C 15,0 C 59 % 0 lf 1019,9 hPa 0,0 l/m 0 min 0 min 355 W/m 20,9 km/h (4 Bft)
26.05.2015 12:20 15,4 C 15,0 C 60 % 0 lf 1019,9 hPa 0,0 l/m 2 min 0 min 418 W/m 16,7 km/h (3 Bft)
26.05.2015 12:22 15,4 C 15,0 C 60 % 0 lf 1019,9 hPa 0,0 l/m 2 min 0 min 466 W/m 12,6 km/h (3 Bft)
26.05.2015 12:24 15,5 C 15,6 C 61 % 0 lf 1019,9 hPa 0,0 l/m 2 min 0 min 483 W/m 18,8 km/h (3 Bft)
26.05.2015 12:26 15,5 C 15,6 C 59 % 0 lf 1019,9 hPa 0,0 l/m 2 min 0 min 492 W/m 12,6 km/h (3 Bft)
26.05.2015 12:28 15,5 C 15,6 C 58 % 0 lf 1019,9 hPa 0,0 l/m 2 min 0 min 532 W/m 18,8 km/h (3 Bft)
26.05.2015 12:30 15,5 C 15,0 C 59 % 0 lf 1019,9 hPa 0,0 l/m 2 min 0 min 414 W/m 18,8 km/h (3 Bft)
26.05.2015 12:32 15,5 C 15,0 C 59 % 0 lf 1019,9 hPa 0,0 l/m 0 min 0 min 340 W/m 23,0 km/h (4 Bft)
26.05.2015 12:34 15,5 C 15,0 C 58 % 0 lf 1019,9 hPa 0,0 l/m 0 min 0 min 297 W/m 27,2 km/h (4 Bft)
26.05.2015 12:36 15,4 C 14,4 C 59 % 0 lf 1019,9 hPa 0,0 l/m 0 min 0 min 276 W/m 20,9 km/h (4 Bft)
26.05.2015 12:38 15,4 C 14,4 C 58 % 0 lf 1020,0 hPa 0,0 l/m 0 min 0 min 266 W/m 16,7 km/h (3 Bft)
26.05.2015 12:40 15,3 C 14,4 C 59 % 0 lf 1019,9 hPa 0,0 l/m 0 min 0 min 242 W/m 14,6 km/h (3 Bft)
26.05.2015 12:42 15,3 C 13,9 C 59 % 0 lf 1019,9 hPa 0,0 l/m 0 min 0 min 200 W/m 20,9 km/h (4 Bft)
26.05.2015 12:44 15,3 C 13,9 C 59 % 0 lf 1019,9 hPa 0,0 l/m 0 min 0 min 182 W/m 16,7 km/h (3 Bft)
26.05.2015 12:46 15,2 C 13,9 C 61 % 0 lf 1019,9 hPa 0,0 l/m 0 min 0 min 172 W/m 27,2 km/h (4 Bft)
26.05.2015 12:48 15,1 C 13,9 C 60 % 0 lf 1019,9 hPa 0,0 l/m 0 min 0 min 133 W/m 14,6 km/h (3 Bft)
26.05.2015 12:50 15,1 C 13,3 C 59 % 0 lf 1020,0 hPa 0,0 l/m 0 min 0 min 97 W/m 16,7 km/h (3 Bft)
26.05.2015 12:52 15,0 C 13,3 C 59 % 0 lf 1020,0 hPa 0,0 l/m 0 min 0 min 77 W/m 12,6 km/h (3 Bft)
26.05.2015 12:54 14,9 C 12,8 C 59 % 0 lf 1020,0 hPa 0,0 l/m 0 min 0 min 69 W/m 18,8 km/h (3 Bft)
26.05.2015 12:56 14,9 C 12,8 C 59 % 0 lf 1020,0 hPa 0,0 l/m 0 min 0 min 68 W/m 12,6 km/h (3 Bft)
26.05.2015 12:58 14,8 C 12,8 C 59 % 0 lf 1020,0 hPa 0,0 l/m 0 min 0 min 69 W/m 8,4 km/h (2 Bft)
26.05.2015 13:00 14,7 C 12,8 C 59 % 0 lf 1020,1 hPa 0,0 l/m 0 min 0 min 76 W/m 14,6 km/h (3 Bft)
26.05.2015 13:02 14,7 C 12,8 C 59 % 0 lf 1020,1 hPa 0,0 l/m 0 min 0 min 86 W/m 16,7 km/h (3 Bft)
26.05.2015 13:04 14,6 C 12,8 C 59 % 0 lf 1020,1 hPa 0,0 l/m 0 min 0 min 93 W/m 14,6 km/h (3 Bft)
26.05.2015 13:06 14,5 C 12,8 C 59 % 0 lf 1020,1 hPa 0,0 l/m 0 min 0 min 98 W/m 20,9 km/h (4 Bft)
26.05.2015 13:08 14,4 C 12,8 C 59 % 0 lf 1020,1 hPa 0,0 l/m 0 min 0 min 96 W/m 16,7 km/h (3 Bft)
26.05.2015 13:10 14,3 C 12,2 C 59 % 0 lf 1020,1 hPa 0,0 l/m 0 min 0 min 83 W/m 14,6 km/h (3 Bft)
26.05.2015 13:12 14,2 C 12,2 C 60 % 0 lf 1020,1 hPa 0,0 l/m 0 min 0 min 73 W/m 10,5 km/h (2 Bft)
26.05.2015 13:14 14,2 C 12,2 C 60 % 0 lf 1020,1 hPa 0,0 l/m 0 min 0 min 68 W/m 16,7 km/h (3 Bft)
26.05.2015 13:16 14,2 C 12,2 C 60 % 0 lf 1020,2 hPa 0,0 l/m 0 min 0 min 67 W/m 20,9 km/h (4 Bft)
26.05.2015 13:18 14,1 C 12,2 C 60 % 0 lf 1020,3 hPa 0,0 l/m 0 min 0 min 69 W/m 27,2 km/h (4 Bft)
26.05.2015 13:20 13,9 C 12,2 C 63 % 0 lf 1020,2 hPa 0,0 l/m 0 min 0 min 77 W/m 31,4 km/h (5 Bft)
26.05.2015 13:22 13,8 C 12,2 C 64 % 0 lf 1020,4 hPa 0,0 l/m 0 min 0 min 86 W/m 25,1 km/h (4 Bft)
26.05.2015 13:24 13,6 C 11,7 C 65 % 0 lf 1020,6 hPa 0,0 l/m 0 min 0 min 100 W/m 41,8 km/h (6 Bft)
26.05.2015 13:26 13,4 C 11,7 C 67 % 0 lf 1020,5 hPa 0,0 l/m 0 min 0 min 129 W/m 29,3 km/h (5 Bft)
26.05.2015 13:28 13,3 C 11,7 C 68 % 0 lf 1020,5 hPa 0,0 l/m 0 min 0 min 181 W/m 37,7 km/h (5 Bft)
26.05.2015 13:30 13,1 C 12,2 C 69 % 0 lf 1020,5 hPa 0,0 l/m 0 min 0 min 253 W/m 33,5 km/h (5 Bft)
26.05.2015 13:32 13,0 C 12,2 C 70 % 0 lf 1020,5 hPa 0,0 l/m 0 min 0 min 313 W/m 27,2 km/h (4 Bft)
26.05.2015 13:34 12,9 C 12,2 C 70 % 0 lf 1020,4 hPa 0,0 l/m 0 min 0 min 330 W/m 27,2 km/h (4 Bft)
26.05.2015 13:36 12,8 C 12,2 C 70 % 0 lf 1020,5 hPa 0,0 l/m 0 min 0 min 315 W/m 27,2 km/h (4 Bft)
26.05.2015 13:38 12,8 C 12,2 C 70 % 0 lf 1020,4 hPa 0,0 l/m 0 min 0 min 320 W/m 23,0 km/h (4 Bft)
26.05.2015 13:40 12,8 C 12,8 C 70 % 0 lf 1020,4 hPa 0,0 l/m 0 min 0 min 338 W/m 23,0 km/h (4 Bft)
26.05.2015 13:42 12,8 C 12,8 C 69 % 0 lf 1020,5 hPa 0,0 l/m 0 min 0 min 311 W/m 27,2 km/h (4 Bft)
26.05.2015 13:44 12,8 C 12,8 C 69 % 0 lf 1020,5 hPa 0,0 l/m 0 min 0 min 295 W/m 25,1 km/h (4 Bft)
26.05.2015 13:46 12,8 C 12,8 C 69 % 0 lf 1020,5 hPa 0,0 l/m 0 min 0 min 307 W/m 20,9 km/h (4 Bft)
26.05.2015 13:48 12,8 C 12,8 C 69 % 0 lf 1020,6 hPa 0,0 l/m 0 min 0 min 300 W/m 20,9 km/h (4 Bft)
26.05.2015 13:50 12,8 C 12,8 C 69 % 0 lf 1020,6 hPa 0,0 l/m 0 min 0 min 297 W/m 25,1 km/h (4 Bft)
26.05.2015 13:52 12,8 C 12,8 C 69 % 0 lf 1020,5 hPa 0,0 l/m 0 min 0 min 311 W/m 18,8 km/h (3 Bft)
26.05.2015 13:54 12,8 C 12,8 C 69 % 0 lf 1020,6 hPa 0,0 l/m 0 min 0 min 304 W/m 20,9 km/h (4 Bft)
26.05.2015 13:56 12,9 C 12,8 C 69 % 0 lf 1020,5 hPa 0,0 l/m 0 min 0 min 305 W/m 18,8 km/h (3 Bft)
26.05.2015 13:58 12,9 C 12,8 C 69 % 0 lf 1020,5 hPa 0,0 l/m 0 min 0 min 320 W/m 18,8 km/h (3 Bft)
26.05.2015 14:00 12,9 C 12,8 C 68 % 0 lf 1020,6 hPa 0,0 l/m 0 min 0 min 325 W/m 18,8 km/h (3 Bft)
26.05.2015 14:02 12,9 C 12,8 C 68 % 0 lf 1020,6 hPa 0,0 l/m 0 min 0 min 322 W/m 14,6 km/h (3 Bft)
26.05.2015 14:04 13,0 C 13,3 C 68 % 0 lf 1020,5 hPa 0,0 l/m 0 min 0 min 336 W/m 18,8 km/h (3 Bft)
26.05.2015 14:06 13,1 C 13,3 C 68 % 0 lf 1020,5 hPa 0,0 l/m 0 min 0 min 381 W/m 16,7 km/h (3 Bft)
26.05.2015 14:08 13,1 C 13,3 C 66 % 0 lf 1020,5 hPa 0,0 l/m 0 min 0 min 369 W/m 23,0 km/h (4 Bft)
26.05.2015 14:10 13,1 C 13,3 C 66 % 0 lf 1020,5 hPa 0,0 l/m 0 min 0 min 337 W/m 12,6 km/h (3 Bft)
26.05.2015 14:12 13,2 C 13,3 C 66 % 0 lf 1020,5 hPa 0,0 l/m 0 min 0 min 316 W/m 12,6 km/h (3 Bft)
26.05.2015 14:14 13,2 C 13,3 C 66 % 0 lf 1020,5 hPa 0,0 l/m 0 min 0 min 310 W/m 12,6 km/h (3 Bft)
26.05.2015 14:16 13,3 C 13,3 C 66 % 0 lf 1020,4 hPa 0,0 l/m 0 min 0 min 306 W/m 14,6 km/h (3 Bft)
26.05.2015 14:18 13,3 C 13,3 C 67 % 0 lf 1020,4 hPa 0,0 l/m 0 min 0 min 327 W/m 16,7 km/h (3 Bft)
26.05.2015 14:20 13,4 C 13,3 C 66 % 0 lf 1020,5 hPa 0,0 l/m 0 min 0 min 375 W/m 14,6 km/h (3 Bft)
26.05.2015 14:22 13,4 C 13,9 C 66 % 0 lf 1020,5 hPa 0,0 l/m 2 min 0 min 422 W/m 16,7 km/h (3 Bft)
26.05.2015 14:24 13,5 C 13,9 C 66 % 0 lf 1020,5 hPa 0,0 l/m 2 min 0 min 484 W/m 18,8 km/h (3 Bft)
26.05.2015 14:26 13,7 C 13,9 C 66 % 0 lf 1020,5 hPa 0,0 l/m 2 min 0 min 512 W/m 23,0 km/h (4 Bft)
26.05.2015 14:28 13,7 C 13,9 C 65 % 0 lf 1020,4 hPa 0,0 l/m 2 min 0 min 420 W/m 12,6 km/h (3 Bft)
26.05.2015 14:30 13,8 C 14,4 C 65 % 0 lf 1020,4 hPa 0,0 l/m 2 min 0 min 442 W/m 14,6 km/h (3 Bft)
26.05.2015 14:32 13,9 C 14,4 C 66 % 0 lf 1020,4 hPa 0,0 l/m 2 min 0 min 440 W/m 14,6 km/h (3 Bft)
26.05.2015 14:34 14,0 C 14,4 C 65 % 0 lf 1020,4 hPa 0,0 l/m 2 min 0 min 474 W/m 10,5 km/h (2 Bft)
26.05.2015 14:36 14,2 C 14,4 C 66 % 0 lf 1020,3 hPa 0,0 l/m 2 min 0 min 536 W/m 12,6 km/h (3 Bft)
26.05.2015 14:38 14,2 C 15,0 C 65 % 0 lf 1020,3 hPa 0,0 l/m 2 min 0 min 536 W/m 18,8 km/h (3 Bft)
26.05.2015 14:40 14,3 C 15,0 C 64 % 0 lf 1020,3 hPa 0,0 l/m 2 min 0 min 536 W/m 14,6 km/h (3 Bft)
26.05.2015 14:42 14,5 C 15,0 C 64 % 0 lf 1020,3 hPa 0,0 l/m 2 min 0 min 536 W/m 12,6 km/h (3 Bft)
26.05.2015 14:44 14,7 C 15,0 C 65 % 0 lf 1020,3 hPa 0,0 l/m 2 min 0 min 981 W/m 12,6 km/h (3 Bft)
26.05.2015 14:46 14,8 C 15,0 C 63 % 0 lf 1020,3 hPa 0,0 l/m 2 min 0 min 601 W/m 23,0 km/h (4 Bft)
26.05.2015 14:48 14,9 C 15,0 C 62 % 0 lf 1020,2 hPa 0,0 l/m 0 min 0 min 238 W/m 16,7 km/h (3 Bft)
26.05.2015 14:50 15,0 C 14,4 C 61 % 0 lf 1020,3 hPa 0,0 l/m 0 min 0 min 217 W/m 18,8 km/h (3 Bft)
26.05.2015 14:52 15,1 C 14,4 C 61 % 0 lf 1020,2 hPa 0,0 l/m 0 min 0 min 220 W/m 16,7 km/h (3 Bft)
26.05.2015 14:54 15,1 C 14,4 C 62 % 0 lf 1020,2 hPa 0,0 l/m 0 min 0 min 245 W/m 25,1 km/h (4 Bft)
26.05.2015 14:56 15,1 C 14,4 C 61 % 0 lf 1020,2 hPa 0,0 l/m 0 min 0 min 318 W/m 20,9 km/h (4 Bft)
26.05.2015 14:58 15,2 C 14,4 C 62 % 0 lf 1020,2 hPa 0,0 l/m 2 min 0 min 401 W/m 18,8 km/h (3 Bft)
26.05.2015 15:00 15,2 C 14,4 C 62 % 0 lf 1020,2 hPa 0,0 l/m 2 min 0 min 424 W/m 18,8 km/h (3 Bft)
26.05.2015 15:02 15,3 C 15,0 C 63 % 0 lf 1020,2 hPa 0,0 l/m 2 min 0 min 990 W/m 14,6 km/h (3 Bft)
26.05.2015 15:04 15,4 C 15,0 C 63 % 0 lf 1020,1 hPa 0,0 l/m 2 min 0 min 597 W/m 23,0 km/h (4 Bft)
26.05.2015 15:06 15,6 C 15,0 C 61 % 0 lf 1020,2 hPa 0,0 l/m 0 min 0 min 332 W/m 23,0 km/h (4 Bft)
26.05.2015 15:08 15,7 C 15,0 C 60 % 0 lf 1020,2 hPa 0,0 l/m 0 min 0 min 379 W/m 25,1 km/h (4 Bft)
26.05.2015 15:10 15,9 C 15,6 C 60 % 0 lf 1020,1 hPa 0,0 l/m 2 min 0 min 1090 W/m 27,2 km/h (4 Bft)
26.05.2015 15:12 16,0 C 15,6 C 58 % 0 lf 1020,1 hPa 0,0 l/m 2 min 0 min 519 W/m 23,0 km/h (4 Bft)
26.05.2015 15:14 16,1 C 15,0 C 56 % 0 lf 1020,1 hPa 0,0 l/m 0 min 0 min 311 W/m 29,3 km/h (5 Bft)
26.05.2015 15:16 16,1 C 15,0 C 56 % 0 lf 1020,1 hPa 0,0 l/m 0 min 0 min 223 W/m 20,9 km/h (4 Bft)
26.05.2015 15:18 16,1 C 14,4 C 56 % 0 lf 1020,2 hPa 0,0 l/m 0 min 0 min 205 W/m 18,8 km/h (3 Bft)
26.05.2015 15:20 16,0 C 14,4 C 56 % 0 lf 1020,1 hPa 0,0 l/m 0 min 0 min 221 W/m 23,0 km/h (4 Bft)
26.05.2015 15:22 16,0 C 14,4 C 56 % 0 lf 1020,2 hPa 0,0 l/m 0 min 0 min 236 W/m 31,4 km/h (5 Bft)
26.05.2015 15:24 15,9 C 14,4 C 55 % 0 lf 1020,2 hPa 0,0 l/m 0 min 0 min 254 W/m 27,2 km/h (4 Bft)
26.05.2015 15:26 15,8 C 14,4 C 56 % 0 lf 1020,2 hPa 0,0 l/m 0 min 0 min 290 W/m 23,0 km/h (4 Bft)
26.05.2015 15:28 15,8 C 14,4 C 57 % 0 lf 1020,3 hPa 0,0 l/m 0 min 0 min 318 W/m 14,6 km/h (3 Bft)
26.05.2015 15:30 15,8 C 14,4 C 57 % 0 lf 1020,3 hPa 0,0 l/m 0 min 0 min 340 W/m 25,1 km/h (4 Bft)
26.05.2015 15:32 15,8 C 14,4 C 58 % 0 lf 1020,3 hPa 0,0 l/m 0 min 0 min 325 W/m 25,1 km/h (4 Bft)
26.05.2015 15:34 15,8 C 14,4 C 57 % 0 lf 1020,3 hPa 0,0 l/m 0 min 0 min 304 W/m 14,6 km/h (3 Bft)
26.05.2015 15:36 15,8 C 14,4 C 57 % 0 lf 1020,3 hPa 0,0 l/m 0 min 0 min 351 W/m 25,1 km/h (4 Bft)
26.05.2015 15:38 15,8 C 14,4 C 57 % 0 lf 1020,3 hPa 0,0 l/m 2 min 0 min 378 W/m 31,4 km/h (5 Bft)
26.05.2015 15:40 15,8 C 15,0 C 57 % 0 lf 1020,3 hPa 0,0 l/m 2 min 0 min 406 W/m 29,3 km/h (5 Bft)
26.05.2015 15:42 15,8 C 15,0 C 58 % 0 lf 1020,3 hPa 0,0 l/m 2 min 0 min 475 W/m 20,9 km/h (4 Bft)
26.05.2015 15:44 15,9 C 15,0 C 58 % 0 lf 1020,3 hPa 0,0 l/m 2 min 0 min 481 W/m 25,1 km/h (4 Bft)
26.05.2015 15:46 15,9 C 15,0 C 57 % 0 lf 1020,3 hPa 0,0 l/m 2 min 0 min 453 W/m 23,0 km/h (4 Bft)
26.05.2015 15:48 15,9 C 15,0 C 57 % 0 lf 1020,3 hPa 0,0 l/m 2 min 0 min 373 W/m 14,6 km/h (3 Bft)
26.05.2015 15:50 16,0 C 15,0 C 56 % 0 lf 1020,4 hPa 0,0 l/m 0 min 0 min 323 W/m 23,0 km/h (4 Bft)
26.05.2015 15:52 16,0 C 15,0 C 57 % 0 lf 1020,4 hPa 0,0 l/m 0 min 0 min 301 W/m 27,2 km/h (4 Bft)
26.05.2015 15:54 16,0 C 15,0 C 57 % 0 lf 1020,3 hPa 0,0 l/m 0 min 0 min 280 W/m 18,8 km/h (3 Bft)
26.05.2015 15:56 16,0 C 15,0 C 57 % 0 lf 1020,4 hPa 0,0 l/m 0 min 0 min 232 W/m 25,1 km/h (4 Bft)
26.05.2015 15:58 16,0 C 15,0 C 56 % 0 lf 1020,4 hPa 0,0 l/m 0 min 0 min 179 W/m 29,3 km/h (5 Bft)
26.05.2015 16:00 15,9 C 14,4 C 56 % 0 lf 1020,4 hPa 0,0 l/m 0 min 0 min 162 W/m 31,4 km/h (5 Bft)
26.05.2015 16:02 15,8 C 14,4 C 57 % 0 lf 1020,4 hPa 0,0 l/m 0 min 0 min 149 W/m 23,0 km/h (4 Bft)
26.05.2015 16:04 15,8 C 13,9 C 58 % 0 lf 1020,4 hPa 0,0 l/m 0 min 0 min 153 W/m 33,5 km/h (5 Bft)
26.05.2015 16:06 15,7 C 13,9 C 58 % 0 lf 1020,4 hPa 0,0 l/m 0 min 0 min 164 W/m 20,9 km/h (4 Bft)
26.05.2015 16:08 15,7 C 13,9 C 59 % 0 lf 1020,5 hPa 0,0 l/m 0 min 0 min 185 W/m 18,8 km/h (3 Bft)
26.05.2015 16:10 15,6 C 13,9 C 58 % 0 lf 1020,5 hPa 0,0 l/m 0 min 0 min 224 W/m 25,1 km/h (4 Bft)
26.05.2015 16:12 15,6 C 14,4 C 59 % 0 lf 1020,6 hPa 0,0 l/m 0 min 0 min 274 W/m 27,2 km/h (4 Bft)
26.05.2015 16:14 15,5 C 14,4 C 59 % 0 lf 1020,6 hPa 0,0 l/m 0 min 0 min 306 W/m 23,0 km/h (4 Bft)
26.05.2015 16:16 15,5 C 14,4 C 59 % 0 lf 1020,6 hPa 0,0 l/m 0 min 0 min 346 W/m 23,0 km/h (4 Bft)
26.05.2015 16:18 15,5 C 14,4 C 59 % 0 lf 1020,5 hPa 0,0 l/m 2 min 0 min 363 W/m 16,7 km/h (3 Bft)
26.05.2015 16:20 15,5 C 14,4 C 58 % 0 lf 1020,6 hPa 0,0 l/m 0 min 0 min 339 W/m 25,1 km/h (4 Bft)
26.05.2015 16:22 15,5 C 15,0 C 57 % 0 lf 1020,4 hPa 0,0 l/m 0 min 0 min 339 W/m 29,3 km/h (5 Bft)
26.05.2015 16:24 15,6 C 15,6 C 58 % 0 lf 1020,4 hPa 0,0 l/m 0 min 0 min 339 W/m 18,8 km/h (3 Bft)
26.05.2015 16:26 15,7 C 15,6 C 57 % 0 lf 1020,5 hPa 0,0 l/m 0 min 0 min 282 W/m 25,1 km/h (4 Bft)
26.05.2015 16:28 15,8 C 15,0 C 57 % 0 lf 1020,5 hPa 0,0 l/m 0 min 0 min 225 W/m 18,8 km/h (3 Bft)
26.05.2015 16:30 15,8 C 15,0 C 56 % 0 lf 1020,5 hPa 0,0 l/m 0 min 0 min 229 W/m 25,1 km/h (4 Bft)
26.05.2015 16:32 15,9 C 15,0 C 56 % 0 lf 1020,4 hPa 0,0 l/m 0 min 0 min 290 W/m 27,2 km/h (4 Bft)
26.05.2015 16:34 15,9 C 15,0 C 55 % 0 lf 1020,4 hPa 0,0 l/m 0 min 0 min 286 W/m 20,9 km/h (4 Bft)
26.05.2015 16:36 15,9 C 15,0 C 56 % 0 lf 1020,5 hPa 0,0 l/m 0 min 0 min 298 W/m 20,9 km/h (4 Bft)
26.05.2015 16:38 15,9 C 15,0 C 56 % 0 lf 1020,6 hPa 0,0 l/m 0 min 0 min 328 W/m 31,4 km/h (5 Bft)
26.05.2015 16:40 15,9 C 15,0 C 56 % 0 lf 1020,5 hPa 0,0 l/m 2 min 0 min 329 W/m 18,8 km/h (3 Bft)
26.05.2015 16:42 15,9 C 15,0 C 56 % 0 lf 1020,6 hPa 0,0 l/m 0 min 0 min 265 W/m 27,2 km/h (4 Bft)
26.05.2015 16:44 15,9 C 14,4 C 56 % 0 lf 1020,6 hPa 0,0 l/m 0 min 0 min 246 W/m 18,8 km/h (3 Bft)
26.05.2015 16:46 15,9 C 14,4 C 56 % 0 lf 1020,6 hPa 0,0 l/m 0 min 0 min 244 W/m 20,9 km/h (4 Bft)
26.05.2015 16:48 15,8 C 14,4 C 55 % 0 lf 1020,6 hPa 0,0 l/m 0 min 0 min 235 W/m 27,2 km/h (4 Bft)
26.05.2015 16:50 15,8 C 14,4 C 55 % 0 lf 1020,6 hPa 0,0 l/m 0 min 0 min 218 W/m 23,0 km/h (4 Bft)
26.05.2015 16:52 15,8 C 14,4 C 54 % 0 lf 1020,6 hPa 0,0 l/m 0 min 0 min 209 W/m 23,0 km/h (4 Bft)
26.05.2015 16:54 15,7 C 14,4 C 54 % 0 lf 1020,6 hPa 0,0 l/m 0 min 0 min 206 W/m 29,3 km/h (5 Bft)
26.05.2015 16:56 15,7 C 14,4 C 54 % 0 lf 1020,6 hPa 0,0 l/m 0 min 0 min 213 W/m 31,4 km/h (5 Bft)
26.05.2015 16:58 15,6 C 14,4 C 56 % 0 lf 1020,5 hPa 0,0 l/m 0 min 0 min 228 W/m 14,6 km/h (3 Bft)
26.05.2015 17:00 15,6 C 14,4 C 56 % 0 lf 1020,6 hPa 0,0 l/m 0 min 0 min 285 W/m 27,2 km/h (4 Bft)
26.05.2015 17:02 15,6 C 14,4 C 57 % 0 lf 1020,6 hPa 0,0 l/m 2 min 0 min 332 W/m 8,4 km/h (2 Bft)
26.05.2015 17:04 15,7 C 15,0 C 58 % 0 lf 1020,6 hPa 0,0 l/m 2 min 0 min 364 W/m 18,8 km/h (3 Bft)
26.05.2015 17:06 15,8 C 15,0 C 57 % 0 lf 1020,6 hPa 0,0 l/m 2 min 0 min 464 W/m 33,5 km/h (5 Bft)
26.05.2015 17:08 16,0 C 15,0 C 58 % 0 lf 1020,6 hPa 0,0 l/m 2 min 0 min 834 W/m 20,9 km/h (4 Bft)
26.05.2015 17:10 16,1 C 15,6 C 56 % 0 lf 1020,4 hPa 0,0 l/m 2 min 0 min 840 W/m 25,1 km/h (4 Bft)
26.05.2015 17:12 16,2 C 15,0 C 55 % 0 lf 1020,6 hPa 0,0 l/m 0 min 0 min 241 W/m 25,1 km/h (4 Bft)
26.05.2015 17:14 16,2 C 15,0 C 54 % 0 lf 1020,6 hPa 0,0 l/m 0 min 0 min 222 W/m 29,3 km/h (5 Bft)
26.05.2015 17:16 16,2 C 15,0 C 54 % 0 lf 1020,6 hPa 0,0 l/m 0 min 0 min 271 W/m 23,0 km/h (4 Bft)
26.05.2015 17:18 16,3 C 15,0 C 55 % 0 lf 1020,5 hPa 0,0 l/m 0 min 0 min 264 W/m 18,8 km/h (3 Bft)
26.05.2015 17:20 16,3 C 15,0 C 56 % 0 lf 1020,5 hPa 0,0 l/m 0 min 0 min 257 W/m 14,6 km/h (3 Bft)
26.05.2015 17:22 16,3 C 15,0 C 55 % 0 lf 1020,6 hPa 0,0 l/m 0 min 0 min 263 W/m 29,3 km/h (5 Bft)
26.05.2015 17:24 16,3 C 15,0 C 56 % 0 lf 1020,6 hPa 0,0 l/m 2 min 0 min 292 W/m 18,8 km/h (3 Bft)
26.05.2015 17:26 16,2 C 15,0 C 54 % 0 lf 1020,7 hPa 0,0 l/m 0 min 0 min 259 W/m 29,3 km/h (5 Bft)
26.05.2015 17:28 16,2 C 14,4 C 54 % 0 lf 1020,8 hPa 0,0 l/m 0 min 0 min 231 W/m 25,1 km/h (4 Bft)
26.05.2015 17:30 16,1 C 14,4 C 53 % 0 lf 1020,6 hPa 0,0 l/m 0 min 0 min 229 W/m 27,2 km/h (4 Bft)
26.05.2015 17:32 16,0 C 14,4 C 55 % 0 lf 1020,8 hPa 0,0 l/m 0 min 0 min 210 W/m 23,0 km/h (4 Bft)
26.05.2015 17:34 15,9 C 13,9 C 54 % 0 lf 1020,8 hPa 0,0 l/m 0 min 0 min 194 W/m 27,2 km/h (4 Bft)
26.05.2015 17:36 15,9 C 13,9 C 55 % 0 lf 1020,7 hPa 0,0 l/m 0 min 0 min 223 W/m 14,6 km/h (3 Bft)
26.05.2015 17:38 15,8 C 14,4 C 55 % 0 lf 1020,7 hPa 0,0 l/m 0 min 0 min 229 W/m 25,1 km/h (4 Bft)
26.05.2015 17:40 15,8 C 14,4 C 55 % 0 lf 1020,8 hPa 0,0 l/m 0 min 0 min 224 W/m 25,1 km/h (4 Bft)
26.05.2015 17:42 15,8 C 14,4 C 56 % 0 lf 1020,8 hPa 0,0 l/m 0 min 0 min 202 W/m 16,7 km/h (3 Bft)
26.05.2015 17:44 15,8 C 14,4 C 56 % 0 lf 1020,7 hPa 0,0 l/m 0 min 0 min 189 W/m 16,7 km/h (3 Bft)
26.05.2015 17:46 15,8 C 14,4 C 56 % 0 lf 1020,8 hPa 0,0 l/m 0 min 0 min 174 W/m 18,8 km/h (3 Bft)
26.05.2015 17:48 15,8 C 14,4 C 55 % 0 lf 1020,9 hPa 0,0 l/m 0 min 0 min 182 W/m 23,0 km/h (4 Bft)
26.05.2015 17:50 15,8 C 14,4 C 55 % 0 lf 1020,8 hPa 0,0 l/m 0 min 0 min 207 W/m 18,8 km/h (3 Bft)
26.05.2015 17:52 15,7 C 14,4 C 56 % 0 lf 1020,9 hPa 0,0 l/m 0 min 0 min 207 W/m 16,7 km/h (3 Bft)
26.05.2015 17:54 15,7 C 14,4 C 55 % 0 lf 1020,9 hPa 0,0 l/m 0 min 0 min 204 W/m 18,8 km/h (3 Bft)
26.05.2015 17:56 15,7 C 14,4 C 55 % 0 lf 1020,9 hPa 0,0 l/m 0 min 0 min 235 W/m 18,8 km/h (3 Bft)
26.05.2015 17:58 15,7 C 14,4 C 56 % 0 lf 1020,9 hPa 0,0 l/m 0 min 0 min 242 W/m 14,6 km/h (3 Bft)
26.05.2015 18:00 15,7 C 14,4 C 57 % 0 lf 1021,0 hPa 0,0 l/m 0 min 0 min 219 W/m 18,8 km/h (3 Bft)
26.05.2015 18:02 15,7 C 14,4 C 56 % 0 lf 1020,9 hPa 0,0 l/m 0 min 0 min 195 W/m 16,7 km/h (3 Bft)
26.05.2015 18:06 15,7 C 14,4 C 55 % 0 lf 1020,9 hPa 0,0 l/m 0 min 0 min 176 W/m 27,2 km/h (4 Bft)
26.05.2015 18:08 15,6 C 14,4 C 54 % 0 lf 1020,9 hPa 0,0 l/m 0 min 0 min 163 W/m 20,9 km/h (4 Bft)
26.05.2015 18:10 15,6 C 14,4 C 54 % 0 lf 1020,9 hPa 0,0 l/m 0 min 0 min 150 W/m 25,1 km/h (4 Bft)
26.05.2015 18:12 15,6 C 13,9 C 55 % 0 lf 1020,9 hPa 0,0 l/m 0 min 0 min 141 W/m 29,3 km/h (5 Bft)
26.05.2015 18:14 15,5 C 13,9 C 55 % 0 lf 1021,1 hPa 0,0 l/m 0 min 0 min 132 W/m 25,1 km/h (4 Bft)
26.05.2015 18:16 15,4 C 13,9 C 55 % 0 lf 1021,0 hPa 0,0 l/m 0 min 0 min 129 W/m 18,8 km/h (3 Bft)
26.05.2015 18:18 15,4 C 13,9 C 55 % 0 lf 1021,0 hPa 0,0 l/m 0 min 0 min 136 W/m 20,9 km/h (4 Bft)
26.05.2015 18:20 15,4 C 13,9 C 55 % 0 lf 1021,0 hPa 0,0 l/m 0 min 0 min 149 W/m 29,3 km/h (5 Bft)
26.05.2015 18:22 15,3 C 13,9 C 54 % 0 lf 1021,0 hPa 0,0 l/m 0 min 0 min 167 W/m 20,9 km/h (4 Bft)
26.05.2015 18:24 15,3 C 13,9 C 55 % 0 lf 1021,0 hPa 0,0 l/m 0 min 0 min 174 W/m 14,6 km/h (3 Bft)
26.05.2015 18:26 15,2 C 13,9 C 55 % 0 lf 1021,0 hPa 0,0 l/m 0 min 0 min 169 W/m 23,0 km/h (4 Bft)
26.05.2015 18:28 15,2 C 13,9 C 55 % 0 lf 1021,0 hPa 0,0 l/m 0 min 0 min 172 W/m 31,4 km/h (5 Bft)
26.05.2015 18:30 15,1 C 13,9 C 55 % 0 lf 1021,1 hPa 0,0 l/m 0 min 0 min 184 W/m 29,3 km/h (5 Bft)
26.05.2015 18:32 15,1 C 13,9 C 55 % 0 lf 1021,1 hPa 0,0 l/m 0 min 0 min 184 W/m 20,9 km/h (4 Bft)
26.05.2015 18:34 15,1 C 13,9 C 55 % 0 lf 1021,1 hPa 0,0 l/m 0 min 0 min 174 W/m 20,9 km/h (4 Bft)
26.05.2015 18:36 15,1 C 13,9 C 55 % 0 lf 1021,1 hPa 0,0 l/m 0 min 0 min 169 W/m 29,3 km/h (5 Bft)
26.05.2015 18:38 15,0 C 13,9 C 54 % 0 lf 1021,2 hPa 0,0 l/m 0 min 0 min 183 W/m 27,2 km/h (4 Bft)
26.05.2015 18:40 15,0 C 13,9 C 54 % 0 lf 1021,2 hPa 0,0 l/m 0 min 0 min 167 W/m 23,0 km/h (4 Bft)
26.05.2015 18:42 14,9 C 13,9 C 54 % 0 lf 1021,3 hPa 0,0 l/m 0 min 0 min 179 W/m 25,1 km/h (4 Bft)
26.05.2015 18:44 14,9 C 13,9 C 54 % 0 lf 1021,3 hPa 0,0 l/m 2 min 0 min 256 W/m 23,0 km/h (4 Bft)
26.05.2015 18:46 14,9 C 13,9 C 54 % 0 lf 1021,3 hPa 0,0 l/m 2 min 0 min 242 W/m 25,1 km/h (4 Bft)
26.05.2015 18:48 14,9 C 13,9 C 55 % 0 lf 1021,4 hPa 0,0 l/m 0 min 0 min 162 W/m 18,8 km/h (3 Bft)
26.05.2015 18:50 14,9 C 13,9 C 55 % 0 lf 1021,4 hPa 0,0 l/m 0 min 0 min 144 W/m 25,1 km/h (4 Bft)
26.05.2015 18:52 14,9 C 13,9 C 56 % 0 lf 1021,4 hPa 0,0 l/m 0 min 0 min 133 W/m 18,8 km/h (3 Bft)
26.05.2015 18:54 14,9 C 13,9 C 57 % 0 lf 1021,5 hPa 0,0 l/m 0 min 0 min 135 W/m 23,0 km/h (4 Bft)
26.05.2015 18:56 14,9 C 13,9 C 57 % 0 lf 1021,5 hPa 0,0 l/m 0 min 0 min 143 W/m 39,7 km/h (6 Bft)
26.05.2015 18:58 14,9 C 13,9 C 57 % 0 lf 1021,5 hPa 0,0 l/m 0 min 0 min 152 W/m 20,9 km/h (4 Bft)
26.05.2015 19:00 14,8 C 13,9 C 57 % 0 lf 1021,5 hPa 0,0 l/m 0 min 0 min 153 W/m 25,1 km/h (4 Bft)
26.05.2015 19:02 14,8 C 13,9 C 57 % 0 lf 1021,5 hPa 0,0 l/m 0 min 0 min 140 W/m 16,7 km/h (3 Bft)
26.05.2015 19:04 14,8 C 13,9 C 57 % 0 lf 1021,5 hPa 0,0 l/m 0 min 0 min 128 W/m 16,7 km/h (3 Bft)
26.05.2015 19:06 14,8 C 13,9 C 58 % 0 lf 1021,5 hPa 0,0 l/m 0 min 0 min 118 W/m 16,7 km/h (3 Bft)
26.05.2015 19:08 14,8 C 13,3 C 57 % 0 lf 1021,6 hPa 0,0 l/m 0 min 0 min 114 W/m 18,8 km/h (3 Bft)
26.05.2015 19:10 14,7 C 13,3 C 57 % 0 lf 1021,6 hPa 0,0 l/m 0 min 0 min 147 W/m 20,9 km/h (4 Bft)
26.05.2015 19:12 14,7 C 13,3 C 57 % 0 lf 1021,6 hPa 0,0 l/m 2 min 0 min 211 W/m 23,0 km/h (4 Bft)
26.05.2015 19:14 14,7 C 13,3 C 58 % 0 lf 1021,7 hPa 0,0 l/m 2 min 0 min 178 W/m 16,7 km/h (3 Bft)
26.05.2015 19:16 14,7 C 13,3 C 58 % 0 lf 1021,6 hPa 0,0 l/m 0 min 0 min 146 W/m 29,3 km/h (5 Bft)
26.05.2015 19:18 14,6 C 13,3 C 57 % 0 lf 1021,6 hPa 0,0 l/m 0 min 0 min 128 W/m 29,3 km/h (5 Bft)
26.05.2015 19:20 14,6 C 13,3 C 57 % 0 lf 1021,7 hPa 0,0 l/m 0 min 0 min 119 W/m 33,5 km/h (5 Bft)
26.05.2015 19:22 14,6 C 13,3 C 58 % 0 lf 1021,7 hPa 0,0 l/m 0 min 0 min 115 W/m 27,2 km/h (4 Bft)
26.05.2015 19:24 14,6 C 13,3 C 57 % 0 lf 1021,7 hPa 0,0 l/m 0 min 0 min 112 W/m 27,2 km/h (4 Bft)
26.05.2015 19:26 14,5 C 13,3 C 56 % 0 lf 1021,7 hPa 0,0 l/m 0 min 0 min 110 W/m 27,2 km/h (4 Bft)
26.05.2015 19:28 14,5 C 13,3 C 56 % 0 lf 1021,8 hPa 0,0 l/m 0 min 0 min 109 W/m 12,6 km/h (3 Bft)
26.05.2015 19:30 14,5 C 13,3 C 57 % 0 lf 1021,8 hPa 0,0 l/m 0 min 0 min 104 W/m 14,6 km/h (3 Bft)
26.05.2015 19:32 14,4 C 13,3 C 57 % 0 lf 1021,8 hPa 0,0 l/m 0 min 0 min 92 W/m 20,9 km/h (4 Bft)
26.05.2015 19:34 14,4 C 13,3 C 57 % 0 lf 1021,9 hPa 0,0 l/m 0 min 0 min 83 W/m 27,2 km/h (4 Bft)
26.05.2015 19:36 14,4 C 13,3 C 57 % 0 lf 1021,9 hPa 0,0 l/m 0 min 0 min 81 W/m 20,9 km/h (4 Bft)
26.05.2015 19:38 14,4 C 13,3 C 56 % 0 lf 1021,9 hPa 0,0 l/m 0 min 0 min 85 W/m 23,0 km/h (4 Bft)
26.05.2015 19:40 14,4 C 13,3 C 57 % 0 lf 1021,9 hPa 0,0 l/m 0 min 0 min 93 W/m 23,0 km/h (4 Bft)
26.05.2015 19:42 14,4 C 13,3 C 57 % 0 lf 1021,9 hPa 0,0 l/m 0 min 0 min 99 W/m 12,6 km/h (3 Bft)
26.05.2015 19:44 14,4 C 13,3 C 57 % 0 lf 1021,9 hPa 0,0 l/m 0 min 0 min 100 W/m 14,6 km/h (3 Bft)
26.05.2015 19:46 14,3 C 13,3 C 56 % 0 lf 1022,0 hPa 0,0 l/m 0 min 0 min 106 W/m 18,8 km/h (3 Bft)
26.05.2015 19:48 14,3 C 12,8 C 57 % 0 lf 1022,0 hPa 0,0 l/m 2 min 0 min 142 W/m 33,5 km/h (5 Bft)
26.05.2015 19:50 14,3 C 12,8 C 56 % 0 lf 1022,0 hPa 0,0 l/m 0 min 0 min 112 W/m 29,3 km/h (5 Bft)
26.05.2015 19:52 14,2 C 12,8 C 55 % 0 lf 1022,0 hPa 0,0 l/m 0 min 0 min 88 W/m 27,2 km/h (4 Bft)
26.05.2015 19:54 14,2 C 12,8 C 55 % 0 lf 1022,0 hPa 0,0 l/m 0 min 0 min 71 W/m 31,4 km/h (5 Bft)
26.05.2015 19:56 14,2 C 12,2 C 56 % 0 lf 1021,9 hPa 0,0 l/m 0 min 0 min 61 W/m 31,4 km/h (5 Bft)
26.05.2015 19:58 14,2 C 12,2 C 56 % 0 lf 1021,9 hPa 0,0 l/m 0 min 0 min 58 W/m 25,1 km/h (4 Bft)
26.05.2015 20:00 14,2 C 12,2 C 56 % 0 lf 1022,0 hPa 0,0 l/m 0 min 0 min 59 W/m 23,0 km/h (4 Bft)
26.05.2015 20:02 14,1 C 12,2 C 56 % 0 lf 1022,1 hPa 0,0 l/m 0 min 0 min 62 W/m 18,8 km/h (3 Bft)
26.05.2015 20:04 14,0 C 12,2 C 57 % 0 lf 1022,1 hPa 0,0 l/m 0 min 0 min 73 W/m 16,7 km/h (3 Bft)
26.05.2015 20:06 14,0 C 12,2 C 58 % 0 lf 1022,1 hPa 0,0 l/m 0 min 0 min 64 W/m 25,1 km/h (4 Bft)
26.05.2015 20:08 13,9 C 12,2 C 58 % 0 lf 1022,1 hPa 0,0 l/m 0 min 0 min 67 W/m 20,9 km/h (4 Bft)
26.05.2015 20:10 13,9 C 12,2 C 58 % 0 lf 1022,1 hPa 0,0 l/m 0 min 0 min 74 W/m 14,6 km/h (3 Bft)
26.05.2015 20:12 13,9 C 12,2 C 58 % 0 lf 1022,2 hPa 0,0 l/m 0 min 0 min 73 W/m 20,9 km/h (4 Bft)
26.05.2015 20:14 13,8 C 12,2 C 58 % 0 lf 1022,2 hPa 0,0 l/m 0 min 0 min 74 W/m 18,8 km/h (3 Bft)
26.05.2015 20:16 13,8 C 12,2 C 58 % 0 lf 1022,3 hPa 0,0 l/m 0 min 0 min 69 W/m 14,6 km/h (3 Bft)
26.05.2015 20:18 13,8 C 12,2 C 59 % 0 lf 1022,3 hPa 0,0 l/m 0 min 0 min 59 W/m 12,6 km/h (3 Bft)
26.05.2015 20:20 13,8 C 12,2 C 59 % 0 lf 1022,4 hPa 0,0 l/m 0 min 0 min 50 W/m 14,6 km/h (3 Bft)
26.05.2015 20:22 13,8 C 12,2 C 59 % 0 lf 1022,4 hPa 0,0 l/m 0 min 0 min 46 W/m 29,3 km/h (5 Bft)
26.05.2015 20:24 13,7 C 12,2 C 60 % 0 lf 1022,4 hPa 0,0 l/m 0 min 0 min 42 W/m 23,0 km/h (4 Bft)
26.05.2015 20:26 13,7 C 12,2 C 60 % 0 lf 1022,4 hPa 0,0 l/m 0 min 0 min 40 W/m 23,0 km/h (4 Bft)
26.05.2015 20:28 13,6 C 11,7 C 60 % 0 lf 1022,4 hPa 0,0 l/m 0 min 0 min 38 W/m 23,0 km/h (4 Bft)
26.05.2015 20:30 13,6 C 11,7 C 60 % 0 lf 1022,4 hPa 0,0 l/m 0 min 0 min 36 W/m 20,9 km/h (4 Bft)
26.05.2015 20:32 13,5 C 11,7 C 60 % 0 lf 1022,4 hPa 0,0 l/m 0 min 0 min 35 W/m 25,1 km/h (4 Bft)
26.05.2015 20:34 13,4 C 11,7 C 60 % 0 lf 1022,4 hPa 0,0 l/m 0 min 0 min 35 W/m 16,7 km/h (3 Bft)
26.05.2015 20:36 13,4 C 11,7 C 60 % 0 lf 1022,4 hPa 0,0 l/m 0 min 0 min 38 W/m 18,8 km/h (3 Bft)
26.05.2015 20:38 13,4 C 11,7 C 61 % 0 lf 1022,4 hPa 0,0 l/m 0 min 0 min 42 W/m 16,7 km/h (3 Bft)
26.05.2015 20:40 13,3 C 11,7 C 61 % 0 lf 1022,5 hPa 0,0 l/m 0 min 0 min 43 W/m 20,9 km/h (4 Bft)
26.05.2015 20:42 13,3 C 11,7 C 61 % 0 lf 1022,5 hPa 0,0 l/m 0 min 0 min 41 W/m 16,7 km/h (3 Bft)
26.05.2015 20:44 13,3 C 11,7 C 61 % 0 lf 1022,5 hPa 0,0 l/m 0 min 0 min 34 W/m 16,7 km/h (3 Bft)
26.05.2015 20:46 13,3 C 11,7 C 62 % 0 lf 1022,5 hPa 0,0 l/m 0 min 0 min 30 W/m 25,1 km/h (4 Bft)
26.05.2015 20:48 13,2 C 11,7 C 61 % 0 lf 1022,6 hPa 0,0 l/m 0 min 0 min 30 W/m 20,9 km/h (4 Bft)
26.05.2015 20:50 13,2 C 11,7 C 61 % 0 lf 1022,6 hPa 0,0 l/m 0 min 0 min 34 W/m 16,7 km/h (3 Bft)
26.05.2015 20:52 13,1 C 11,7 C 61 % 0 lf 1022,6 hPa 0,0 l/m 0 min 0 min 38 W/m 20,9 km/h (4 Bft)
26.05.2015 20:54 13,1 C 11,7 C 62 % 0 lf 1022,5 hPa 0,0 l/m 0 min 0 min 36 W/m 20,9 km/h (4 Bft)
26.05.2015 20:56 13,1 C 11,7 C 62 % 0 lf 1022,5 hPa 0,0 l/m 2 min 0 min 35 W/m 23,0 km/h (4 Bft)
26.05.2015 20:58 13,0 C 11,7 C 62 % 0 lf 1022,5 hPa 0,0 l/m 2 min 0 min 34 W/m 16,7 km/h (3 Bft)
26.05.2015 21:00 13,0 C 11,7 C 62 % 0 lf 1022,5 hPa 0,0 l/m 2 min 0 min 32 W/m 12,6 km/h (3 Bft)
26.05.2015 21:02 13,0 C 11,7 C 62 % 0 lf 1022,5 hPa 0,0 l/m 2 min 0 min 31 W/m 14,6 km/h (3 Bft)
26.05.2015 21:04 12,9 C 11,7 C 63 % 0 lf 1022,5 hPa 0,0 l/m 2 min 0 min 28 W/m 12,6 km/h (3 Bft)
26.05.2015 21:06 12,9 C 11,7 C 63 % 0 lf 1022,5 hPa 0,0 l/m 2 min 0 min 25 W/m 18,8 km/h (3 Bft)
26.05.2015 21:08 12,9 C 11,7 C 63 % 0 lf 1022,5 hPa 0,0 l/m 2 min 0 min 22 W/m 14,6 km/h (3 Bft)
26.05.2015 21:10 12,9 C 11,7 C 63 % 0 lf 1022,5 hPa 0,0 l/m 2 min 0 min 21 W/m 18,8 km/h (3 Bft)
26.05.2015 21:12 12,9 C 11,7 C 63 % 0 lf 1022,6 hPa 0,0 l/m 0 min 0 min 18 W/m 18,8 km/h (3 Bft)
26.05.2015 21:14 12,9 C 11,7 C 63 % 0 lf 1022,5 hPa 0,0 l/m 0 min 0 min 16 W/m 16,7 km/h (3 Bft)
26.05.2015 21:16 12,8 C 11,7 C 63 % 0 lf 1022,6 hPa 0,0 l/m 0 min 0 min 15 W/m 14,6 km/h (3 Bft)
26.05.2015 21:18 12,8 C 11,7 C 63 % 0 lf 1022,7 hPa 0,0 l/m 0 min 0 min 14 W/m 10,5 km/h (2 Bft)
26.05.2015 21:20 12,8 C 11,7 C 63 % 0 lf 1022,7 hPa 0,0 l/m 0 min 0 min 13 W/m 14,6 km/h (3 Bft)
26.05.2015 21:22 12,8 C 11,1 C 63 % 0 lf 1022,7 hPa 0,0 l/m 0 min 0 min 12 W/m 14,6 km/h (3 Bft)
26.05.2015 21:24 12,7 C 11,1 C 63 % 0 lf 1022,8 hPa 0,0 l/m 0 min 0 min 11 W/m 10,5 km/h (2 Bft)
26.05.2015 21:26 12,7 C 11,1 C 64 % 0 lf 1022,8 hPa 0,0 l/m 0 min 0 min 10 W/m 10,5 km/h (2 Bft)
26.05.2015 21:28 12,7 C 11,1 C 64 % 0 lf 1022,8 hPa 0,0 l/m 0 min 0 min 7 W/m 16,7 km/h (3 Bft)
26.05.2015 21:30 12,7 C 11,1 C 63 % 0 lf 1022,8 hPa 0,0 l/m 0 min 0 min 7 W/m 12,6 km/h (3 Bft)
26.05.2015 21:32 12,6 C 11,1 C 63 % 0 lf 1022,8 hPa 0,0 l/m 0 min 0 min 6 W/m 16,7 km/h (3 Bft)
26.05.2015 21:34 12,6 C 11,1 C 63 % 0 lf 1022,9 hPa 0,0 l/m 0 min 0 min 5 W/m 16,7 km/h (3 Bft)
26.05.2015 21:36 12,6 C 11,1 C 64 % 0 lf 1022,8 hPa 0,0 l/m 0 min 0 min 5 W/m 10,5 km/h (2 Bft)
26.05.2015 21:38 12,5 C 11,1 C 64 % 0 lf 1022,9 hPa 0,0 l/m 0 min 0 min 3 W/m 20,9 km/h (4 Bft)
26.05.2015 21:40 12,5 C 11,1 C 64 % 0 lf 1023,0 hPa 0,0 l/m 0 min 0 min 0 W/m 16,7 km/h (3 Bft)
26.05.2015 21:42 12,4 C 11,1 C 64 % 0 lf 1022,9 hPa 0,0 l/m 0 min 0 min 0 W/m 18,8 km/h (3 Bft)
26.05.2015 21:44 12,4 C 11,1 C 64 % 0 lf 1023,1 hPa 0,0 l/m 0 min 0 min 0 W/m 10,5 km/h (2 Bft)
26.05.2015 21:46 12,4 C 11,1 C 64 % 0 lf 1023,0 hPa 0,0 l/m 0 min 0 min 0 W/m 14,6 km/h (3 Bft)
26.05.2015 21:48 12,3 C 11,1 C 65 % 0 lf 1023,1 hPa 0,0 l/m 0 min 0 min 0 W/m 14,6 km/h (3 Bft)
26.05.2015 21:50 12,3 C 11,1 C 65 % 0 lf 1023,1 hPa 0,0 l/m 0 min 0 min 0 W/m 10,5 km/h (2 Bft)
26.05.2015 21:52 12,3 C 11,1 C 65 % 0 lf 1023,1 hPa 0,0 l/m 0 min 0 min 0 W/m 14,6 km/h (3 Bft)
26.05.2015 21:54 12,3 C 11,1 C 65 % 0 lf 1023,1 hPa 0,0 l/m 0 min 0 min 0 W/m 14,6 km/h (3 Bft)
26.05.2015 21:56 12,2 C 11,1 C 66 % 0 lf 1023,1 hPa 0,0 l/m 0 min 0 min 0 W/m 10,5 km/h (2 Bft)
26.05.2015 21:58 12,2 C 11,1 C 66 % 0 lf 1023,1 hPa 0,0 l/m 0 min 0 min 0 W/m 10,5 km/h (2 Bft)
26.05.2015 22:00 12,2 C 11,1 C 66 % 0 lf 1023,2 hPa 0,0 l/m 0 min 0 min 0 W/m 18,8 km/h (3 Bft)
26.05.2015 22:02 12,2 C 11,1 C 67 % 0 lf 1023,2 hPa 0,0 l/m 0 min 0 min 0 W/m 8,4 km/h (2 Bft)
26.05.2015 22:04 12,2 C 11,1 C 67 % 0 lf 1023,2 hPa 0,0 l/m 0 min 0 min 0 W/m 6,3 km/h (2 Bft)
26.05.2015 22:06 12,2 C 11,1 C 67 % 0 lf 1023,1 hPa 0,0 l/m 0 min 0 min 0 W/m 4,2 km/h (1 Bft)
26.05.2015 22:08 12,2 C 11,1 C 67 % 0 lf 1023,2 hPa 0,0 l/m 0 min 0 min 0 W/m 6,3 km/h (2 Bft)
26.05.2015 22:10 12,2 C 11,1 C 67 % 0 lf 1023,1 hPa 0,0 l/m 0 min 0 min 0 W/m 6,3 km/h (2 Bft)
26.05.2015 22:12 12,1 C 11,1 C 67 % 0 lf 1023,1 hPa 0,0 l/m 0 min 0 min 0 W/m 10,5 km/h (2 Bft)
26.05.2015 22:14 12,1 C 11,1 C 68 % 0 lf 1023,2 hPa 0,0 l/m 0 min 0 min 0 W/m 6,3 km/h (2 Bft)
26.05.2015 22:16 12,1 C 11,1 C 68 % 0 lf 1023,2 hPa 0,0 l/m 0 min 0 min 0 W/m 8,4 km/h (2 Bft)
26.05.2015 22:18 12,1 C 11,1 C 68 % 0 lf 1023,2 hPa 0,0 l/m 0 min 0 min 0 W/m 6,3 km/h (2 Bft)
26.05.2015 22:20 12,1 C 10,6 C 68 % 0 lf 1023,2 hPa 0,0 l/m 0 min 0 min 0 W/m 8,4 km/h (2 Bft)
26.05.2015 22:22 12,1 C 10,6 C 68 % 0 lf 1023,2 hPa 0,0 l/m 0 min 0 min 0 W/m 8,4 km/h (2 Bft)
26.05.2015 22:24 12,0 C 10,6 C 68 % 0 lf 1023,2 hPa 0,0 l/m 0 min 0 min 0 W/m 6,3 km/h (2 Bft)
26.05.2015 22:26 12,0 C 11,1 C 69 % 0 lf 1023,3 hPa 0,0 l/m 0 min 0 min 0 W/m 4,2 km/h (1 Bft)
26.05.2015 22:28 12,0 C 10,6 C 69 % 0 lf 1023,2 hPa 0,0 l/m 0 min 0 min 0 W/m 6,3 km/h (2 Bft)
26.05.2015 22:30 12,0 C 10,6 C 69 % 0 lf 1023,3 hPa 0,0 l/m 0 min 0 min 0 W/m 6,3 km/h (2 Bft)
26.05.2015 22:32 12,0 C 10,6 C 69 % 0 lf 1023,3 hPa 0,0 l/m 0 min 0 min 0 W/m 6,3 km/h (2 Bft)
26.05.2015 22:34 11,9 C 10,6 C 69 % 0 lf 1023,3 hPa 0,0 l/m 0 min 0 min 0 W/m 8,4 km/h (2 Bft)
26.05.2015 22:36 11,9 C 10,6 C 69 % 0 lf 1023,3 hPa 0,0 l/m 0 min 0 min 0 W/m 8,4 km/h (2 Bft)
26.05.2015 22:38 11,9 C 10,6 C 70 % 0 lf 1023,3 hPa 0,0 l/m 0 min 0 min 0 W/m 6,3 km/h (2 Bft)
26.05.2015 22:40 11,9 C 10,6 C 70 % 0 lf 1023,3 hPa 0,0 l/m 0 min 0 min 0 W/m 8,4 km/h (2 Bft)
26.05.2015 22:42 11,9 C 10,6 C 70 % 0 lf 1023,3 hPa 0,0 l/m 0 min 0 min 0 W/m 8,4 km/h (2 Bft)
26.05.2015 22:44 11,9 C 10,6 C 70 % 0 lf 1023,3 hPa 0,0 l/m 0 min 0 min 0 W/m 8,4 km/h (2 Bft)
26.05.2015 22:46 11,8 C 10,6 C 70 % 0 lf 1023,4 hPa 0,0 l/m 0 min 0 min 0 W/m 12,6 km/h (3 Bft)
26.05.2015 22:48 11,8 C 10,6 C 70 % 0 lf 1023,3 hPa 0,0 l/m 0 min 0 min 0 W/m 12,6 km/h (3 Bft)
26.05.2015 22:50 11,8 C 10,6 C 69 % 0 lf 1023,3 hPa 0,0 l/m 0 min 0 min 0 W/m 14,6 km/h (3 Bft)
26.05.2015 22:52 11,7 C 10,6 C 69 % 0 lf 1023,4 hPa 0,0 l/m 0 min 0 min 0 W/m 12,6 km/h (3 Bft)
26.05.2015 22:54 11,7 C 10,6 C 69 % 0 lf 1023,3 hPa 0,0 l/m 0 min 0 min 0 W/m 8,4 km/h (2 Bft)
26.05.2015 22:56 11,7 C 10,6 C 69 % 0 lf 1023,3 hPa 0,0 l/m 0 min 0 min 0 W/m 12,6 km/h (3 Bft)
26.05.2015 22:58 11,7 C 10,6 C 70 % 0 lf 1023,4 hPa 0,0 l/m 0 min 0 min 0 W/m 8,4 km/h (2 Bft)
26.05.2015 23:00 11,6 C 10,6 C 69 % 0 lf 1023,4 hPa 0,0 l/m 0 min 0 min 0 W/m 10,5 km/h (2 Bft)
26.05.2015 23:02 11,6 C 10,6 C 69 % 0 lf 1023,4 hPa 0,0 l/m 0 min 0 min 0 W/m 10,5 km/h (2 Bft)
26.05.2015 23:04 11,6 C 10,6 C 69 % 0 lf 1023,4 hPa 0,0 l/m 0 min 0 min 0 W/m 8,4 km/h (2 Bft)
26.05.2015 23:06 11,6 C 10,6 C 70 % 0 lf 1023,5 hPa 0,0 l/m 0 min 0 min 0 W/m 8,4 km/h (2 Bft)
26.05.2015 23:08 11,6 C 10,6 C 70 % 0 lf 1023,4 hPa 0,0 l/m 0 min 0 min 0 W/m 10,5 km/h (2 Bft)
26.05.2015 23:10 11,6 C 10,6 C 70 % 0 lf 1023,4 hPa 0,0 l/m 0 min 0 min 0 W/m 8,4 km/h (2 Bft)
26.05.2015 23:12 11,6 C 10,6 C 70 % 0 lf 1023,5 hPa 0,0 l/m 0 min 0 min 0 W/m 12,6 km/h (3 Bft)
26.05.2015 23:14 11,5 C 10,6 C 70 % 0 lf 1023,5 hPa 0,0 l/m 0 min 0 min 0 W/m 10,5 km/h (2 Bft)
26.05.2015 23:16 11,5 C 10,6 C 70 % 0 lf 1023,5 hPa 0,0 l/m 0 min 0 min 0 W/m 8,4 km/h (2 Bft)
26.05.2015 23:18 11,5 C 10,6 C 70 % 0 lf 1023,4 hPa 0,0 l/m 0 min 0 min 0 W/m 10,5 km/h (2 Bft)
26.05.2015 23:20 11,5 C 10,6 C 70 % 0 lf 1023,5 hPa 0,0 l/m 0 min 0 min 0 W/m 10,5 km/h (2 Bft)
26.05.2015 23:22 11,5 C 10,6 C 70 % 0 lf 1023,4 hPa 0,0 l/m 0 min 0 min 0 W/m 10,5 km/h (2 Bft)
26.05.2015 23:24 11,5 C 10,6 C 70 % 0 lf 1023,4 hPa 0,0 l/m 0 min 0 min 0 W/m 10,5 km/h (2 Bft)
26.05.2015 23:26 11,5 C 10,6 C 70 % 0 lf 1023,5 hPa 0,0 l/m 0 min 0 min 0 W/m 12,6 km/h (3 Bft)
26.05.2015 23:28 11,5 C 10,6 C 70 % 0 lf 1023,5 hPa 0,0 l/m 0 min 0 min 0 W/m 10,5 km/h (2 Bft)
26.05.2015 23:30 11,4 C 10,6 C 70 % 0 lf 1023,5 hPa 0,0 l/m 0 min 0 min 0 W/m 10,5 km/h (2 Bft)
26.05.2015 23:32 11,4 C 10,6 C 70 % 0 lf 1023,5 hPa 0,0 l/m 0 min 0 min 0 W/m 8,4 km/h (2 Bft)
26.05.2015 23:34 11,4 C 10,6 C 70 % 0 lf 1023,5 hPa 0,0 l/m 0 min 0 min 0 W/m 12,6 km/h (3 Bft)
26.05.2015 23:36 11,4 C 10,6 C 70 % 0 lf 1023,5 hPa 0,0 l/m 0 min 0 min 0 W/m 10,5 km/h (2 Bft)
26.05.2015 23:38 11,4 C 10,6 C 71 % 0 lf 1023,6 hPa 0,0 l/m 0 min 0 min 0 W/m 8,4 km/h (2 Bft)
26.05.2015 23:40 11,4 C 10,6 C 71 % 0 lf 1023,5 hPa 0,0 l/m 0 min 0 min 0 W/m 6,3 km/h (2 Bft)
26.05.2015 23:42 11,4 C 10,0 C 71 % 0 lf 1023,6 hPa 0,0 l/m 0 min 0 min 0 W/m 6,3 km/h (2 Bft)
26.05.2015 23:44 11,4 C 10,0 C 71 % 0 lf 1023,6 hPa 0,0 l/m 0 min 0 min 0 W/m 6,3 km/h (2 Bft)
26.05.2015 23:46 11,4 C 10,0 C 71 % 0 lf 1023,6 hPa 0,0 l/m 0 min 0 min 0 W/m 8,4 km/h (2 Bft)
26.05.2015 23:48 11,4 C 10,0 C 71 % 0 lf 1023,6 hPa 0,0 l/m 0 min 0 min 0 W/m 8,4 km/h (2 Bft)
26.05.2015 23:50 11,4 C 10,0 C 71 % 0 lf 1023,6 hPa 0,0 l/m 0 min 0 min 0 W/m 6,3 km/h (2 Bft)
26.05.2015 23:52 11,3 C 10,0 C 72 % 0 lf 1023,6 hPa 0,0 l/m 0 min 0 min 0 W/m 8,4 km/h (2 Bft)
26.05.2015 23:54 11,3 C 10,0 C 72 % 0 lf 1023,6 hPa 0,0 l/m 0 min 0 min 0 W/m 10,5 km/h (2 Bft)
26.05.2015 23:56 11,3 C 10,0 C 72 % 0 lf 1023,6 hPa 0,0 l/m 0 min 0 min 0 W/m 10,5 km/h (2 Bft)
26.05.2015 23:58 11,3 C 10,0 C 72 % 0 lf 1023,6 hPa 0,0 l/m 0 min 0 min 0 W/m 12,6 km/h (3 Bft)
_ Min-Zeit 06:02 04:28 17:30 00:00 00:00 - - - - 05:16
Minimum _ 9,2 C 8,9 C 53 % 0 lf 1016,6 hPa - - - - 4,2 km/h (1 Bft)
_ Max-Zeit 17:18 12:02 07:12 04:44 23:38 00:00 08:32 03:16 15:10 13:24
Maximum _ 16,3 C 15,6 C 87 % 3 lf 1023,6 hPa 0,0 l/m 2 min 2 min 1090 W/m 41,8 km/h
NO (6 Bft)
Durchschnitt _ 12,5 C 11,8 C 70 % 0 lf 1019,8 hPa #0,0 l/m #4:24 h #6 min. 232 W/m 15,4 km/h (3 Bft)
© 2015 W. Hausmann